Observation data for Mertzon on 04/08/2021      Previous  Date  Next       Current Mesonet Observations  Soil Data  Daily Summary Page  Observations in Plain Language
KME1 080500Z 32001KT 11/M04 A299 RMK A01 T01091038  RH  035%=      5-min Rain = 0
KME1 080501Z 33001KT 11/M04 A299 RMK A01 T01081039  RH  036%=      5-min Rain = 0
KME1 080502Z 31001KT 11/M04 A299 RMK A01 T01071038  RH  036%=      5-min Rain = 0
KME1 080503Z 29001KT 11/M04 A299 RMK A01 T01061039  RH  036%=      5-min Rain = 0
KME1 080504Z 28000KT 10/M04 A299 RMK A01 T01041038  RH  037%=      5-min Rain = 0
KME1 080505Z 27001KT 10/M04 A299 RMK A01 T01031039  RH  037%=      5-min Rain = 0
KME1 080506Z 25001KT 10/M04 A299 RMK A01 T01021039  RH  037%=      5-min Rain = 0
KME1 080507Z 23001KT 10/M04 A299 RMK A01 T01011039  RH  037%=      5-min Rain = 0
KME1 080508Z 22001KT 10/M04 A299 RMK A01 T01001039  RH  037%=      5-min Rain = 0
KME1 080509Z 21002KT 10/M04 A299 RMK A01 T00991039  RH  037%=      5-min Rain = 0
KME1 080510Z 20001KT 10/M04 A299 RMK A01 T00991039  RH  038%=      5-min Rain = 0
KME1 080511Z 21002KT 10/M04 A299 RMK A01 T00971038  RH  038%=      5-min Rain = 0
KME1 080512Z 21002KT 10/M04 A299 RMK A01 T00971043  RH  037%=      5-min Rain = 0
KME1 080513Z 21002KT 10/M04 A299 RMK A01 T00991044  RH  036%=      5-min Rain = 0
KME1 080514Z 21002KT 10/M05 A299 RMK A01 T01011045  RH  036%=      5-min Rain = 0
KME1 080515Z 21002KT 10/M04 A299 RMK A01 T01021044  RH  036%=      5-min Rain = 0
KME1 080516Z 22002KT 10/M05 A299 RMK A01 T01041045  RH  035%=      5-min Rain = 0
KME1 080517Z 21002KT 11/M05 A299 RMK A01 T01061047  RH  034%=      5-min Rain = 0
KME1 080518Z 21001KT 11/M05 A299 RMK A01 T01091048  RH  033%=      5-min Rain = 0
KME1 080519Z 23001KT 11/M05 A299 RMK A01 T01111049  RH  032%=      5-min Rain = 0
KME1 080520Z 24001KT 11/M05 A299 RMK A01 T01121045  RH  033%=      5-min Rain = 0
KME1 080521Z 26001KT 11/M05 A299 RMK A01 T01111050  RH  032%=      5-min Rain = 0
KME1 080522Z 26001KT 11/M05 A299 RMK A01 T01121052  RH  031%=      5-min Rain = 0
KME1 080523Z 26001KT 11/M05 A299 RMK A01 T01131051  RH  031%=      5-min Rain = 0
KME1 080524Z 26001KT 12/M05 A299 RMK A01 T01151049  RH  031%=      5-min Rain = 0
KME1 080525Z 25001KT 11/M05 A299 RMK A01 T01141048  RH  032%=      5-min Rain = 0
KME1 080526Z 24001KT 11/M05 A299 RMK A01 T01141048  RH  032%=      5-min Rain = 0
KME1 080527Z 23001KT 11/M04 A299 RMK A01 T01141042  RH  033%=      5-min Rain = 0
KME1 080528Z 23001KT 11/M04 A299 RMK A01 T01121039  RH  035%=      5-min Rain = 0
KME1 080529Z 22001KT 11/M04 A299 RMK A01 T01071036  RH  036%=      5-min Rain = 0
KME1 080530Z 20001KT 10/M04 A299 RMK A01 T01011037  RH  038%=      5-min Rain = 0
KME1 080531Z 18001KT 10/M04 A299 RMK A01 T00961038  RH  039%=      5-min Rain = 0
KME1 080532Z 18001KT 09/M04 A299 RMK A01 T00931038  RH  040%=      5-min Rain = 0
KME1 080533Z 17001KT 09/M04 A299 RMK A01 T00901037  RH  040%=      5-min Rain = 0
KME1 080534Z 17000KT 09/M04 A299 RMK A01 T00891037  RH  041%=      5-min Rain = 0
KME1 080535Z 17000KT 09/M04 A299 RMK A01 T00871037  RH  041%=      5-min Rain = 0
KME1 080536Z 17001KT 09/M04 A299 RMK A01 T00851038  RH  042%=      5-min Rain = 0
KME1 080537Z 15001KT 08/M04 A299 RMK A01 T00831037  RH  042%=      5-min Rain = 0
KME1 080538Z 15001KT 08/M04 A299 RMK A01 T00811038  RH  043%=      5-min Rain = 0
KME1 080539Z 15001KT 08/M04 A299 RMK A01 T00811037  RH  043%=      5-min Rain = 0
KME1 080540Z 15001KT 08/M04 A299 RMK A01 T00801037  RH  043%=      5-min Rain = 0
KME1 080541Z 14000KT 08/M04 A299 RMK A01 T00801036  RH  044%=      5-min Rain = 0
KME1 080542Z 14000KT 08/M04 A299 RMK A01 T00801036  RH  044%=      5-min Rain = 0
KME1 080543Z 15000KT 08/M04 A299 RMK A01 T00801037  RH  043%=      5-min Rain = 0
KME1 080544Z 16001KT 08/M04 A299 RMK A01 T00811039  RH  043%=      5-min Rain = 0
KME1 080545Z 17001KT 08/M04 A299 RMK A01 T00821040  RH  042%=      5-min Rain = 0
KME1 080546Z 17001KT 08/M04 A299 RMK A01 T00841039  RH  042%=      5-min Rain = 0
KME1 080547Z 18002KT 09/M04 A299 RMK A01 T00851039  RH  041%=      5-min Rain = 0
KME1 080548Z 19002KT 09/M04 A299 RMK A01 T00861038  RH  041%=      5-min Rain = 0
KME1 080549Z 19002KT 09/M04 A299 RMK A01 T00871038  RH  041%=      5-min Rain = 0
KME1 080550Z 19002KT 09/M04 A299 RMK A01 T00881039  RH  041%=      5-min Rain = 0
KME1 080551Z 20002KT 09/M04 A299 RMK A01 T00881041  RH  040%=      5-min Rain = 0
KME1 080552Z 19002KT 09/M04 A299 RMK A01 T00891041  RH  040%=      5-min Rain = 0
KME1 080553Z 20002KT 09/M04 A299 RMK A01 T00901039  RH  040%=      5-min Rain = 0
KME1 080554Z 19002KT 09/M04 A299 RMK A01 T00901040  RH  040%=      5-min Rain = 0
KME1 080555Z 20002KT 09/M04 A299 RMK A01 T00901042  RH  039%=      5-min Rain = 0
KME1 080556Z 20002KT 09/M04 A299 RMK A01 T00901043  RH  039%=      5-min Rain = 0
KME1 080557Z 21002KT 09/M04 A299 RMK A01 T00891042  RH  039%=      5-min Rain = 0
KME1 080558Z 21002KT 09/M05 A299 RMK A01 T00901045  RH  038%=      5-min Rain = 0
KME1 080559Z 21002KT 10/M05 A299 RMK A01 T00951045  RH  037%=      5-min Rain = 0
KME1 080600Z 20002KT 10/M05 A299 RMK A01 T00971046  RH  036%=      5-min Rain = 0
KME1 080601Z 20002KT 10/M05 A299 RMK A01 T00981047  RH  036%=      5-min Rain = 0
KME1 080602Z 20002KT 10/M05 A299 RMK A01 T01001047  RH  035%=      5-min Rain = 0
KME1 080603Z 20002KT 10/M05 A299 RMK A01 T01001045  RH  036%=      5-min Rain = 0
KME1 080604Z 20002KT 10/M04 A299 RMK A01 T00991043  RH  036%=      5-min Rain = 0
KME1 080605Z 21003KT 10/M04 A299 RMK A01 T00971043  RH  037%=      5-min Rain = 0
KME1 080606Z 20003KT 09/M04 A299 RMK A01 T00941042  RH  038%=      5-min Rain = 0
KME1 080607Z 20003KT 09/M04 A299 RMK A01 T00891041  RH  040%=      5-min Rain = 0
KME1 080608Z 20003KT 09/M04 A299 RMK A01 T00851040  RH  041%=      5-min Rain = 0
KME1 080609Z 20003KT 08/M04 A299 RMK A01 T00831039  RH  042%=      5-min Rain = 0
KME1 080610Z 21003KT 08/M04 A299 RMK A01 T00821038  RH  043%=      5-min Rain = 0
KME1 080611Z 20002KT 08/M04 A299 RMK A01 T00811037  RH  043%=      5-min Rain = 0
KME1 080612Z 21002KT 08/M04 A299 RMK A01 T00811039  RH  043%=      5-min Rain = 0
KME1 080613Z 20002KT 08/M04 A299 RMK A01 T00801038  RH  043%=      5-min Rain = 0
KME1 080614Z 20002KT 08/M04 A299 RMK A01 T00781038  RH  044%=      5-min Rain = 0
KME1 080615Z 20002KT 08/M04 A299 RMK A01 T00771039  RH  044%=      5-min Rain = 0
KME1 080616Z 19002KT 08/M04 A299 RMK A01 T00751040  RH  044%=      5-min Rain = 0
KME1 080617Z 19002KT 07/M04 A299 RMK A01 T00731040  RH  044%=      5-min Rain = 0
KME1 080618Z 19001KT 07/M04 A299 RMK A01 T00711041  RH  045%=      5-min Rain = 0
KME1 080619Z 20002KT 07/M04 A299 RMK A01 T00691041  RH  045%=      5-min Rain = 0
KME1 080620Z 21003KT 07/M04 A299 RMK A01 T00691042  RH  045%=      5-min Rain = 0
KME1 080621Z 21003KT 07/M04 A299 RMK A01 T00691041  RH  046%=      5-min Rain = 0
KME1 080622Z 21003KT 07/M04 A299 RMK A01 T00691041  RH  045%=      5-min Rain = 0
KME1 080623Z 20003KT 07/M04 A299 RMK A01 T00721041  RH  045%=      5-min Rain = 0
KME1 080624Z 20003KT 08/M04 A299 RMK A01 T00751039  RH  044%=      5-min Rain = 0
KME1 080625Z 20002KT 08/M04 A2989 RMK A01 T00771040  RH  043%=      5-min Rain = 0
KME1 080626Z 20002KT 08/M04 A2989 RMK A01 T00791040  RH  043%=      5-min Rain = 0
KME1 080627Z 20003KT 08/M04 A299 RMK A01 T00821040  RH  042%=      5-min Rain = 0
KME1 080628Z 20003KT 08/M04 A299 RMK A01 T00831041  RH  041%=      5-min Rain = 0
KME1 080629Z 21003KT 09/M04 A299 RMK A01 T00851041  RH  041%=      5-min Rain = 0
KME1 080630Z 21002KT 09/M04 A299 RMK A01 T00861041  RH  040%=      5-min Rain = 0
KME1 080631Z 21003KT 09/M04 A299 RMK A01 T00861040  RH  041%=      5-min Rain = 0
KME1 080632Z 21003KT 09/M04 A299 RMK A01 T00861039  RH  041%=      5-min Rain = 0
KME1 080633Z 21003KT 09/M04 A299 RMK A01 T00861038  RH  041%=      5-min Rain = 0
KME1 080634Z 21002KT 09/M04 A299 RMK A01 T00861038  RH  041%=      5-min Rain = 0
KME1 080635Z 21002KT 09/M04 A299 RMK A01 T00861039  RH  041%=      5-min Rain = 0
KME1 080636Z 22003KT 09/M04 A299 RMK A01 T00861039  RH  041%=      5-min Rain = 0
KME1 080637Z 21002KT 09/M04 A299 RMK A01 T00871039  RH  041%=      5-min Rain = 0
KME1 080638Z 21002KT 09/M04 A299 RMK A01 T00881038  RH  041%=      5-min Rain = 0
KME1 080639Z 20003KT 09/M04 A299 RMK A01 T00881037  RH  041%=      5-min Rain = 0
KME1 080640Z 20003KT 09/M04 A299 RMK A01 T00891036  RH  041%=      5-min Rain = 0
KME1 080641Z 20003KT 09/M04 A299 RMK A01 T00901036  RH  041%=      5-min Rain = 0
KME1 080642Z 20003KT 09/M04 A299 RMK A01 T00901035  RH  041%=      5-min Rain = 0
KME1 080643Z 20003KT 09/M04 A299 RMK A01 T00901035  RH  041%=      5-min Rain = 0
KME1 080644Z 20003KT 09/M04 A299 RMK A01 T00881035  RH  042%=      5-min Rain = 0
KME1 080645Z 20003KT 09/M04 A2989 RMK A01 T00861036  RH  042%=      5-min Rain = 0
KME1 080646Z 20003KT 09/M04 A2989 RMK A01 T00851036  RH  042%=      5-min Rain = 0
KME1 080647Z 20003KT 09/M04 A2989 RMK A01 T00851036  RH  042%=      5-min Rain = 0
KME1 080648Z 20003KT 09/M04 A2989 RMK A01 T00851035  RH  042%=      5-min Rain = 0
KME1 080649Z 21003KT 09/M04 A2989 RMK A01 T00851035  RH  043%=      5-min Rain = 0
KME1 080650Z 20004KT 09/M04 A299 RMK A01 T00851035  RH  043%=      5-min Rain = 0
KME1 080651Z 20004KT 08/M04 A299 RMK A01 T00841035  RH  043%=      5-min Rain = 0
KME1 080652Z 20004KT 08/M04 A2989 RMK A01 T00831035  RH  043%=      5-min Rain = 0
KME1 080653Z 20005KT 08/M04 A2989 RMK A01 T00811035  RH  044%=      5-min Rain = 0
KME1 080654Z 20005KT 08/M03 A2989 RMK A01 T00801034  RH  044%=      5-min Rain = 0
KME1 080655Z 20005KT 08/M03 A2989 RMK A01 T00781034  RH  045%=      5-min Rain = 0
KME1 080656Z 20005KT 08/M03 A2989 RMK A01 T00781034  RH  045%=      5-min Rain = 0
KME1 080657Z 20005KT 08/M03 A2989 RMK A01 T00781034  RH  045%=      5-min Rain = 0
KME1 080658Z 20005KT 08/M03 A2989 RMK A01 T00771034  RH  045%=      5-min Rain = 0
KME1 080659Z 19005KT 08/M03 A2989 RMK A01 T00771034  RH  045%=      5-min Rain = 0
KME1 080700Z 20005KT 08/M03 A2989 RMK A01 T00771034  RH  045%=      5-min Rain = 0
KME1 080701Z 19005KT 08/M03 A2989 RMK A01 T00771034  RH  045%=      5-min Rain = 0
KME1 080702Z 20005KT 08/M03 A2989 RMK A01 T00761034  RH  045%=      5-min Rain = 0
KME1 080703Z 20004KT 08/M03 A2989 RMK A01 T00761034  RH  046%=      5-min Rain = 0
KME1 080704Z 20004KT 08/M03 A2989 RMK A01 T00751034  RH  046%=      5-min Rain = 0
KME1 080705Z 20003KT 07/M03 A2989 RMK A01 T00741033  RH  046%=      5-min Rain = 0
KME1 080706Z 20003KT 07/M03 A299 RMK A01 T00731034  RH  047%=      5-min Rain = 0
KME1 080707Z 20003KT 07/M03 A299 RMK A01 T00721034  RH  047%=      5-min Rain = 0
KME1 080708Z 20002KT 07/M03 A299 RMK A01 T00711034  RH  047%=      5-min Rain = 0
KME1 080709Z 21002KT 07/M03 A299 RMK A01 T00711034  RH  047%=      5-min Rain = 0
KME1 080710Z 21002KT 07/M03 A299 RMK A01 T00711034  RH  047%=      5-min Rain = 0
KME1 080711Z 21002KT 07/M03 A299 RMK A01 T00701034  RH  047%=      5-min Rain = 0
KME1 080712Z 21002KT 07/M03 A299 RMK A01 T00711034  RH  047%=      5-min Rain = 0
KME1 080713Z 21002KT 07/M03 A299 RMK A01 T00711033  RH  047%=      5-min Rain = 0
KME1 080714Z 20002KT 07/M03 A299 RMK A01 T00711033  RH  047%=      5-min Rain = 0
KME1 080715Z 20002KT 07/M03 A299 RMK A01 T00711034  RH  047%=      5-min Rain = 0
KME1 080716Z 20002KT 07/M03 A299 RMK A01 T00711034  RH  047%=      5-min Rain = 0
KME1 080717Z 20002KT 07/M03 A299 RMK A01 T00711034  RH  047%=      5-min Rain = 0
KME1 080718Z 20002KT 07/M03 A299 RMK A01 T00711034  RH  047%=      5-min Rain = 0
KME1 080719Z 20003KT 07/M03 A299 RMK A01 T00711034  RH  047%=      5-min Rain = 0
KME1 080720Z 20003KT 07/M03 A299 RMK A01 T00721033  RH  047%=      5-min Rain = 0
KME1 080721Z 19003KT 07/M03 A299 RMK A01 T00711034  RH  047%=      5-min Rain = 0
KME1 080722Z 19003KT 07/M03 A299 RMK A01 T00711034  RH  047%=      5-min Rain = 0
KME1 080723Z 19003KT 07/M03 A299 RMK A01 T00711034  RH  047%=      5-min Rain = 0
KME1 080724Z 20003KT 07/M03 A299 RMK A01 T00701034  RH  047%=      5-min Rain = 0
KME1 080725Z 19002KT 07/M03 A299 RMK A01 T00701034  RH  047%=      5-min Rain = 0
KME1 080726Z 20002KT 07/M03 A299 RMK A01 T00701033  RH  048%=      5-min Rain = 0
KME1 080727Z 20002KT 07/M03 A299 RMK A01 T00691033  RH  048%=      5-min Rain = 0
KME1 080728Z 19002KT 07/M03 A299 RMK A01 T00681033  RH  048%=      5-min Rain = 0
KME1 080729Z 20002KT 07/M03 A299 RMK A01 T00671033  RH  049%=      5-min Rain = 0
KME1 080730Z 20002KT 07/M03 A299 RMK A01 T00661034  RH  049%=      5-min Rain = 0
KME1 080731Z 21002KT 07/M03 A299 RMK A01 T00651034  RH  049%=      5-min Rain = 0
KME1 080732Z 21002KT 06/M03 A299 RMK A01 T00641034  RH  049%=      5-min Rain = 0
KME1 080733Z 21002KT 06/M03 A299 RMK A01 T00631034  RH  050%=      5-min Rain = 0
KME1 080734Z 21002KT 06/M03 A299 RMK A01 T00641033  RH  050%=      5-min Rain = 0
KME1 080735Z 21002KT 06/M03 A299 RMK A01 T00631033  RH  050%=      5-min Rain = 0
KME1 080736Z 20002KT 06/M03 A299 RMK A01 T00631033  RH  050%=      5-min Rain = 0
KME1 080737Z 20002KT 06/M03 A299 RMK A01 T00621034  RH  050%=      5-min Rain = 0
KME1 080738Z 19001KT 06/M04 A299 RMK A01 T00601035  RH  050%=      5-min Rain = 0
KME1 080739Z 20001KT 06/M04 A299 RMK A01 T00581036  RH  051%=      5-min Rain = 0
KME1 080740Z 20001KT 06/M04 A299 RMK A01 T00571036  RH  051%=      5-min Rain = 0
KME1 080741Z 20002KT 06/M04 A299 RMK A01 T00561037  RH  051%=      5-min Rain = 0
KME1 080742Z 20002KT 06/M04 A299 RMK A01 T00561036  RH  052%=      5-min Rain = 0
KME1 080743Z 20002KT 06/M04 A299 RMK A01 T00551036  RH  052%=      5-min Rain = 0
KME1 080744Z 21002KT 06/M04 A299 RMK A01 T00551035  RH  052%=      5-min Rain = 0
KME1 080745Z 20002KT 06/M04 A299 RMK A01 T00561035  RH  052%=      5-min Rain = 0
KME1 080746Z 20002KT 06/M03 A299 RMK A01 T00561034  RH  052%=      5-min Rain = 0
KME1 080747Z 20002KT 06/M03 A299 RMK A01 T00571034  RH  052%=      5-min Rain = 0
KME1 080748Z 20002KT 06/M03 A299 RMK A01 T00581034  RH  051%=      5-min Rain = 0
KME1 080749Z 20002KT 06/M04 A299 RMK A01 T00591035  RH  051%=      5-min Rain = 0
KME1 080750Z 20002KT 06/M04 A299 RMK A01 T00601035  RH  051%=      5-min Rain = 0
KME1 080751Z 20002KT 06/M04 A299 RMK A01 T00611035  RH  050%=      5-min Rain = 0
KME1 080752Z 20003KT 06/M04 A299 RMK A01 T00611036  RH  050%=      5-min Rain = 0
KME1 080753Z 20003KT 06/M04 A299 RMK A01 T00611036  RH  050%=      5-min Rain = 0
KME1 080754Z 20003KT 06/M04 A299 RMK A01 T00621036  RH  050%=      5-min Rain = 0
KME1 080755Z 19003KT 06/M04 A299 RMK A01 T00621036  RH  049%=      5-min Rain = 0
KME1 080756Z 19004KT 06/M04 A299 RMK A01 T00621037  RH  049%=      5-min Rain = 0
KME1 080757Z 19004KT 06/M04 A299 RMK A01 T00621037  RH  049%=      5-min Rain = 0
KME1 080758Z 19005KT 06/M04 A2989 RMK A01 T00601038  RH  049%=      5-min Rain = 0
KME1 080759Z 19005KT 06/M04 A2989 RMK A01 T00581038  RH  050%=      5-min Rain = 0
KME1 080800Z 19005KT 06/M04 A2989 RMK A01 T00561038  RH  051%=      5-min Rain = 0
KME1 080801Z 19005KT 05/M04 A2989 RMK A01 T00541039  RH  051%=      5-min Rain = 0
KME1 080802Z 19005KT 05/M04 A2989 RMK A01 T00521040  RH  051%=      5-min Rain = 0
KME1 080803Z 19005KT 05/M04 A2989 RMK A01 T00511040  RH  052%=      5-min Rain = 0
KME1 080804Z 19005KT 05/M04 A2989 RMK A01 T00511039  RH  052%=      5-min Rain = 0
KME1 080805Z 18006KT 05/M04 A2989 RMK A01 T00511039  RH  052%=      5-min Rain = 0
KME1 080806Z 19006KT 05/M04 A2989 RMK A01 T00521038  RH  052%=      5-min Rain = 0
KME1 080807Z 19006KT 05/M04 A2989 RMK A01 T00541037  RH  052%=      5-min Rain = 0
KME1 080808Z 19006KT 06/M04 A2989 RMK A01 T00571036  RH  051%=      5-min Rain = 0
KME1 080809Z 20006KT 06/M04 A2989 RMK A01 T00601035  RH  050%=      5-min Rain = 0
KME1 080810Z 20006KT 06/M04 A2989 RMK A01 T00631035  RH  049%=      5-min Rain = 0
KME1 080811Z 21006KT 07/M04 A2989 RMK A01 T00661035  RH  049%=      5-min Rain = 0
KME1 080812Z 21006KT 07/M04 A2988 RMK A01 T00671035  RH  048%=      5-min Rain = 0
KME1 080813Z 21006KT 07/M04 A2988 RMK A01 T00691035  RH  047%=      5-min Rain = 0
KME1 080814Z 21006KT 07/M04 A2988 RMK A01 T00711035  RH  047%=      5-min Rain = 0
KME1 080815Z 21006KT 07/M04 A2988 RMK A01 T00731035  RH  046%=      5-min Rain = 0
KME1 080816Z 21005KT 07/M04 A2988 RMK A01 T00741035  RH  046%=      5-min Rain = 0
KME1 080817Z 20005KT 08/M04 A2988 RMK A01 T00751035  RH  046%=      5-min Rain = 0
KME1 080818Z 21005KT 08/M04 A2988 RMK A01 T00761035  RH  045%=      5-min Rain = 0
KME1 080819Z 20005KT 08/M04 A2988 RMK A01 T00771036  RH  045%=      5-min Rain = 0
KME1 080820Z 20005KT 08/M04 A2988 RMK A01 T00791036  RH  044%=      5-min Rain = 0
KME1 080821Z 20005KT 08/M04 A2988 RMK A01 T00801037  RH  043%=      5-min Rain = 0
KME1 080822Z 20006KT 08/M04 A2988 RMK A01 T00811037  RH  043%=      5-min Rain = 0
KME1 080823Z 20006KT 08/M04 A2988 RMK A01 T00821037  RH  043%=      5-min Rain = 0
KME1 080824Z 21006KT 08/M04 A2988 RMK A01 T00821037  RH  043%=      5-min Rain = 0
KME1 080825Z 21006KT 08/M04 A2987 RMK A01 T00821037  RH  043%=      5-min Rain = 0
KME1 080826Z 21006KT 08/M04 A2987 RMK A01 T00821037  RH  043%=      5-min Rain = 0
KME1 080827Z 21006KT 08/M04 A2987 RMK A01 T00811037  RH  043%=      5-min Rain = 0
KME1 080828Z 21006KT 08/M04 A2987 RMK A01 T00811037  RH  043%=      5-min Rain = 0
KME1 080829Z 21006KT 08/M04 A2987 RMK A01 T00811037  RH  043%=      5-min Rain = 0
KME1 080830Z 21007KT 08/M04 A2987 RMK A01 T00811037  RH  043%=      5-min Rain = 0
KME1 080831Z 20006KT 08/M04 A2987 RMK A01 T00811037  RH  043%=      5-min Rain = 0
KME1 080832Z 20006KT 08/M04 A2987 RMK A01 T00801037  RH  043%=      5-min Rain = 0
KME1 080833Z 19006KT 08/M04 A2987 RMK A01 T00791036  RH  044%=      5-min Rain = 0
KME1 080834Z 19006KT 08/M04 A2987 RMK A01 T00781036  RH  044%=      5-min Rain = 0
KME1 080835Z 20006KT 08/M04 A2987 RMK A01 T00771036  RH  045%=      5-min Rain = 0
KME1 080836Z 20006KT 08/M04 A2987 RMK A01 T00771035  RH  045%=      5-min Rain = 0
KME1 080837Z 20006KT 08/M04 A2987 RMK A01 T00761035  RH  045%=      5-min Rain = 0
KME1 080838Z 20006KT 08/M04 A2987 RMK A01 T00761035  RH  045%=      5-min Rain = 0
KME1 080839Z 20007KT 08/M04 A2987 RMK A01 T00761035  RH  045%=      5-min Rain = 0
KME1 080840Z 20006KT 08/M03 A2987 RMK A01 T00761034  RH  045%=      5-min Rain = 0
KME1 080841Z 19006KT 08/M04 A2987 RMK A01 T00751035  RH  046%=      5-min Rain = 0
KME1 080842Z 20006KT 07/M04 A2987 RMK A01 T00741035  RH  046%=      5-min Rain = 0
KME1 080843Z 20005KT 07/M04 A2987 RMK A01 T00741035  RH  046%=      5-min Rain = 0
KME1 080844Z 20005KT 07/M04 A2987 RMK A01 T00741035  RH  046%=      5-min Rain = 0
KME1 080845Z 20005KT 08/M04 A2987 RMK A01 T00751035  RH  046%=      5-min Rain = 0
KME1 080846Z 20005KT 08/M03 A2987 RMK A01 T00771034  RH  045%=      5-min Rain = 0
KME1 080847Z 20005KT 08/M03 A2987 RMK A01 T00811033  RH  045%=      5-min Rain = 0
KME1 080848Z 20005KT 08/M03 A2987 RMK A01 T00841032  RH  044%=      5-min Rain = 0
KME1 080849Z 20005KT 09/M03 A2987 RMK A01 T00861032  RH  043%=      5-min Rain = 0
KME1 080850Z 20005KT 09/M03 A2987 RMK A01 T00881031  RH  043%=      5-min Rain = 0
KME1 080851Z 20005KT 09/M03 A2987 RMK A01 T00891031  RH  043%=      5-min Rain = 0
KME1 080852Z 20005KT 09/M03 A2987 RMK A01 T00901031  RH  042%=      5-min Rain = 0
KME1 080853Z 20005KT 09/M03 A2987 RMK A01 T00911031  RH  042%=      5-min Rain = 0
KME1 080854Z 20006KT 09/M03 A2987 RMK A01 T00911030  RH  042%=      5-min Rain = 0
KME1 080855Z 20006KT 09/M03 A2986 RMK A01 T00921030  RH  042%=      5-min Rain = 0
KME1 080856Z 20006KT 09/M03 A2986 RMK A01 T00921029  RH  042%=      5-min Rain = 0
KME1 080857Z 20006KT 09/M03 A2986 RMK A01 T00921029  RH  042%=      5-min Rain = 0
KME1 080858Z 20006KT 09/M03 A2986 RMK A01 T00921029  RH  042%=      5-min Rain = 0
KME1 080859Z 20006KT 09/M03 A2986 RMK A01 T00921029  RH  043%=      5-min Rain = 0
KME1 080900Z 20007KT 09/M03 A2986 RMK A01 T00921028  RH  043%=      5-min Rain = 0
KME1 080901Z 20007KT 09/M03 A2986 RMK A01 T00921028  RH  043%=      5-min Rain = 0
KME1 080902Z 20007KT 09/M03 A2986 RMK A01 T00931028  RH  043%=      5-min Rain = 0
KME1 080903Z 20007KT 09/M03 A2986 RMK A01 T00931028  RH  042%=      5-min Rain = 0
KME1 080904Z 20007KT 10/M03 A2986 RMK A01 T00951027  RH  042%=      5-min Rain = 0
KME1 080905Z 20008KT 10/M03 A2986 RMK A01 T00971026  RH  042%=      5-min Rain = 0
KME1 080906Z 20008KT 10/M03 A2986 RMK A01 T00991025  RH  042%=      5-min Rain = 0
KME1 080907Z 20008KT 10/M02 A2986 RMK A01 T01001024  RH  042%=      5-min Rain = 0
KME1 080908Z 20009KT 10/M02 A2986 RMK A01 T01031024  RH  041%=      5-min Rain = 0
KME1 080909Z 20009KT 11/M02 A2986 RMK A01 T01061023  RH  040%=      5-min Rain = 0
KME1 080910Z 20009KT 11/M02 A2986 RMK A01 T01071023  RH  040%=      5-min Rain = 0
KME1 080911Z 19009KT 11/M02 A2986 RMK A01 T01101023  RH  039%=      5-min Rain = 0
KME1 080912Z 20009KT 11/M02 A2986 RMK A01 T01121022  RH  039%=      5-min Rain = 0
KME1 080913Z 20008KT 12/M02 A2986 RMK A01 T01151022  RH  038%=      5-min Rain = 0
KME1 080914Z 20009KT 12/M02 A2986 RMK A01 T01171022  RH  038%=      5-min Rain = 0
KME1 080915Z 20008KT 12/M02 A2986 RMK A01 T01191022  RH  037%=      5-min Rain = 0
KME1 080916Z 20008KT 12/M02 A2986 RMK A01 T01201022  RH  037%=      5-min Rain = 0
KME1 080917Z 20009KT 12/M02 A2986 RMK A01 T01221022  RH  037%=      5-min Rain = 0
KME1 080918Z 20008KT 12/M02 A2986 RMK A01 T01241022  RH  036%=      5-min Rain = 0
KME1 080919Z 20009KT 12/M02 A2986 RMK A01 T01241022  RH  036%=      5-min Rain = 0
KME1 080920Z 20009KT 12/M02 A2986 RMK A01 T01241023  RH  036%=      5-min Rain = 0
KME1 080921Z 20009KT 12/M02 A2986 RMK A01 T01241023  RH  036%=      5-min Rain = 0
KME1 080922Z 20008KT 13/M02 A2986 RMK A01 T01261023  RH  035%=      5-min Rain = 0
KME1 080923Z 20008KT 13/M02 A2986 RMK A01 T01271023  RH  035%=      5-min Rain = 0
KME1 080924Z 20009KT 13/M02 A2986 RMK A01 T01281024  RH  035%=      5-min Rain = 0
KME1 080925Z 19008KT 13/M02 A2986 RMK A01 T01281023  RH  035%=      5-min Rain = 0
KME1 080926Z 19008KT 13/M02 A2986 RMK A01 T01281024  RH  035%=      5-min Rain = 0
KME1 080927Z 19008KT 13/M02 A2986 RMK A01 T01281024  RH  035%=      5-min Rain = 0
KME1 080928Z 19009KT 13/M02 A2986 RMK A01 T01271024  RH  035%=      5-min Rain = 0
KME1 080929Z 19008KT 13/M02 A2986 RMK A01 T01281023  RH  035%=      5-min Rain = 0
KME1 080930Z 19008KT 13/M02 A2986 RMK A01 T01271024  RH  035%=      5-min Rain = 0
KME1 080931Z 19009KT 13/M02 A2986 RMK A01 T01251024  RH  035%=      5-min Rain = 0
KME1 080932Z 19009KT 13/M02 A2986 RMK A01 T01251024  RH  035%=      5-min Rain = 0
KME1 080933Z 19008KT 13/M02 A2986 RMK A01 T01251024  RH  035%=      5-min Rain = 0
KME1 080934Z 20008KT 13/M02 A2986 RMK A01 T01251024  RH  035%=      5-min Rain = 0
KME1 080935Z 19008KT 12/M02 A2986 RMK A01 T01241024  RH  035%=      5-min Rain = 0
KME1 080936Z 19009KT 12/M03 A2986 RMK A01 T01241025  RH  036%=      5-min Rain = 0
KME1 080937Z 19007KT 12/M02 A2986 RMK A01 T01231024  RH  036%=      5-min Rain = 0
KME1 080938Z 19008KT 12/M03 A2986 RMK A01 T01231025  RH  036%=      5-min Rain = 0
KME1 080939Z 19008KT 12/M03 A2986 RMK A01 T01231025  RH  036%=      5-min Rain = 0
KME1 080940Z 20007KT 12/M03 A2986 RMK A01 T01221025  RH  036%=      5-min Rain = 0
KME1 080941Z 19007KT 12/M03 A2986 RMK A01 T01221025  RH  036%=      5-min Rain = 0
KME1 080942Z 20007KT 12/M03 A2986 RMK A01 T01221025  RH  036%=      5-min Rain = 0
KME1 080943Z 19007KT 12/M03 A2986 RMK A01 T01201025  RH  036%=      5-min Rain = 0
KME1 080944Z 19007KT 12/M03 A2986 RMK A01 T01201026  RH  036%=      5-min Rain = 0
KME1 080945Z 19008KT 12/M03 A2986 RMK A01 T01191026  RH  036%=      5-min Rain = 0
KME1 080946Z 19007KT 12/M03 A2986 RMK A01 T01201026  RH  036%=      5-min Rain = 0
KME1 080947Z 19007KT 12/M03 A2986 RMK A01 T01201026  RH  036%=      5-min Rain = 0
KME1 080948Z 19008KT 12/M03 A2986 RMK A01 T01201026  RH  036%=      5-min Rain = 0
KME1 080949Z 19007KT 12/M03 A2986 RMK A01 T01211026  RH  036%=      5-min Rain = 0
KME1 080950Z 19007KT 12/M03 A2986 RMK A01 T01221025  RH  036%=      5-min Rain = 0
KME1 080951Z 19008KT 12/M03 A2986 RMK A01 T01211026  RH  036%=      5-min Rain = 0
KME1 080952Z 19008KT 12/M03 A2986 RMK A01 T01211026  RH  036%=      5-min Rain = 0
KME1 080953Z 19008KT 12/M03 A2986 RMK A01 T01201026  RH  036%=      5-min Rain = 0
KME1 080954Z 18008KT 12/M03 A2986 RMK A01 T01211026  RH  036%=      5-min Rain = 0
KME1 080955Z 19008KT 12/M03 A2986 RMK A01 T01211027  RH  036%=      5-min Rain = 0
KME1 080956Z 19007KT 12/M03 A2986 RMK A01 T01221026  RH  036%=      5-min Rain = 0
KME1 080957Z 18007KT 12/M03 A2986 RMK A01 T01221026  RH  036%=      5-min Rain = 0
KME1 080958Z 19007KT 12/M03 A2986 RMK A01 T01221026  RH  036%=      5-min Rain = 0
KME1 080959Z 19007KT 12/M03 A2986 RMK A01 T01221026  RH  036%=      5-min Rain = 0
KME1 081000Z 19007KT 12/M03 A2986 RMK A01 T01221026  RH  036%=      5-min Rain = 0
KME1 081001Z 19007KT 12/M03 A2986 RMK A01 T01231026  RH  035%=      5-min Rain = 0
KME1 081002Z 19006KT 12/M03 A2986 RMK A01 T01241026  RH  035%=      5-min Rain = 0
KME1 081003Z 20006KT 12/M03 A2986 RMK A01 T01241026  RH  035%=      5-min Rain = 0
KME1 081004Z 22007KT 12/M03 A2986 RMK A01 T01241026  RH  035%=      5-min Rain = 0
KME1 081005Z 22007KT 12/M03 A2986 RMK A01 T01221027  RH  035%=      5-min Rain = 0
KME1 081006Z 22006KT 12/M03 A2986 RMK A01 T01221027  RH  035%=      5-min Rain = 0
KME1 081007Z 21004KT 12/M03 A2986 RMK A01 T01221027  RH  035%=      5-min Rain = 0
KME1 081008Z 21004KT 12/M03 A2986 RMK A01 T01211027  RH  035%=      5-min Rain = 0
KME1 081009Z 21004KT 12/M03 A2986 RMK A01 T01201028  RH  035%=      5-min Rain = 0
KME1 081010Z 21005KT 12/M03 A2986 RMK A01 T01191028  RH  036%=      5-min Rain = 0
KME1 081011Z 20005KT 12/M03 A2986 RMK A01 T01181029  RH  036%=      5-min Rain = 0
KME1 081012Z 19005KT 12/M03 A2986 RMK A01 T01181029  RH  036%=      5-min Rain = 0
KME1 081013Z 19005KT 12/M03 A2986 RMK A01 T01181029  RH  036%=      5-min Rain = 0
KME1 081014Z 19005KT 12/M03 A2986 RMK A01 T01171030  RH  036%=      5-min Rain = 0
KME1 081015Z 19005KT 12/M03 A2986 RMK A01 T01171030  RH  036%=      5-min Rain = 0
KME1 081016Z 19004KT 12/M03 A2986 RMK A01 T01161029  RH  036%=      5-min Rain = 0
KME1 081017Z 19005KT 12/M03 A2986 RMK A01 T01151029  RH  036%=      5-min Rain = 0
KME1 081018Z 17005KT 12/M03 A2986 RMK A01 T01151029  RH  036%=      5-min Rain = 0
KME1 081019Z 20007KT 11/M03 A2986 RMK A01 T01141028  RH  037%=      5-min Rain = 0
KME1 081020Z 21007KT 12/M03 A2986 RMK A01 T01161027  RH  037%=      5-min Rain = 0
KME1 081021Z 23007KT 12/M03 A2986 RMK A01 T01181026  RH  036%=      5-min Rain = 0
KME1 081022Z 21007KT 12/M03 A2986 RMK A01 T01191027  RH  036%=      5-min Rain = 0
KME1 081023Z 21006KT 12/M03 A2986 RMK A01 T01191027  RH  036%=      5-min Rain = 0
KME1 081024Z 20006KT 12/M03 A2986 RMK A01 T01191027  RH  036%=      5-min Rain = 0
KME1 081025Z 21006KT 12/M03 A2986 RMK A01 T01181028  RH  036%=      5-min Rain = 0
KME1 081026Z 21006KT 12/M03 A2986 RMK A01 T01181028  RH  036%=      5-min Rain = 0
KME1 081027Z 21007KT 12/M03 A2986 RMK A01 T01171029  RH  036%=      5-min Rain = 0
KME1 081028Z 20006KT 12/M03 A2986 RMK A01 T01171029  RH  036%=      5-min Rain = 0
KME1 081029Z 20006KT 12/M03 A2986 RMK A01 T01171030  RH  036%=      5-min Rain = 0
KME1 081030Z 19007KT 12/M03 A2986 RMK A01 T01181030  RH  035%=      5-min Rain = 0
KME1 081031Z 19006KT 12/M03 A2986 RMK A01 T01191030  RH  035%=      5-min Rain = 0
KME1 081032Z 19006KT 12/M03 A2986 RMK A01 T01201030  RH  035%=      5-min Rain = 0
KME1 081033Z 19006KT 12/M03 A2986 RMK A01 T01201031  RH  035%=      5-min Rain = 0
KME1 081034Z 18007KT 12/M03 A2986 RMK A01 T01201031  RH  035%=      5-min Rain = 0
KME1 081035Z 17008KT 12/M03 A2986 RMK A01 T01201031  RH  035%=      5-min Rain = 0
KME1 081036Z 16008KT 12/M03 A2986 RMK A01 T01211031  RH  034%=      5-min Rain = 0
KME1 081037Z 17008KT 12/M03 A2986 RMK A01 T01211031  RH  035%=      5-min Rain = 0
KME1 081038Z 16007KT 12/M03 A2986 RMK A01 T01211030  RH  035%=      5-min Rain = 0
KME1 081039Z 17006KT 12/M03 A2986 RMK A01 T01221030  RH  035%=      5-min Rain = 0
KME1 081040Z 18005KT 12/M03 A2986 RMK A01 T01221029  RH  035%=      5-min Rain = 0
KME1 081041Z 18006KT 12/M03 A2986 RMK A01 T01211030  RH  035%=      5-min Rain = 0
KME1 081042Z 17005KT 12/M03 A2987 RMK A01 T01221030  RH  035%=      5-min Rain = 0
KME1 081043Z 17005KT 12/M03 A2987 RMK A01 T01211030  RH  035%=      5-min Rain = 0
KME1 081044Z 17004KT 12/M03 A2987 RMK A01 T01201031  RH  035%=      5-min Rain = 0
KME1 081045Z 17003KT 12/M03 A2986 RMK A01 T01191031  RH  035%=      5-min Rain = 0
KME1 081046Z 15003KT 12/M03 A2986 RMK A01 T01181030  RH  035%=      5-min Rain = 0
KME1 081047Z 15003KT 12/M03 A2986 RMK A01 T01171030  RH  035%=      5-min Rain = 0
KME1 081048Z 15003KT 12/M03 A2986 RMK A01 T01161031  RH  036%=      5-min Rain = 0
KME1 081049Z 16001KT 12/M03 A2986 RMK A01 T01151031  RH  036%=      5-min Rain = 0
KME1 081050Z 16002KT 11/M03 A2986 RMK A01 T01141031  RH  036%=      5-min Rain = 0
KME1 081051Z 17003KT 11/M03 A2986 RMK A01 T01141032  RH  036%=      5-min Rain = 0
KME1 081052Z 17003KT 11/M03 A2986 RMK A01 T01131031  RH  036%=      5-min Rain = 0
KME1 081053Z 17003KT 11/M03 A2986 RMK A01 T01121032  RH  036%=      5-min Rain = 0
KME1 081054Z 17003KT 11/M03 A2986 RMK A01 T01111032  RH  037%=      5-min Rain = 0
KME1 081055Z 16003KT 11/M03 A2986 RMK A01 T01101032  RH  037%=      5-min Rain = 0
KME1 081056Z 16003KT 11/M03 A2986 RMK A01 T01101031  RH  037%=      5-min Rain = 0
KME1 081057Z 16003KT 11/M03 A2986 RMK A01 T01081032  RH  037%=      5-min Rain = 0
KME1 081058Z 16003KT 11/M03 A2986 RMK A01 T01071032  RH  037%=      5-min Rain = 0
KME1 081059Z 17004KT 11/M03 A2986 RMK A01 T01061032  RH  038%=      5-min Rain = 0
KME1 081100Z 16004KT 11/M03 A2986 RMK A01 T01051032  RH  038%=      5-min Rain = 0
KME1 081101Z 16004KT 10/M03 A2986 RMK A01 T01041033  RH  038%=      5-min Rain = 0
KME1 081102Z 16004KT 10/M03 A2986 RMK A01 T01011033  RH  039%=      5-min Rain = 0
KME1 081103Z 17004KT 10/M03 A2986 RMK A01 T00991033  RH  039%=      5-min Rain = 0
KME1 081104Z 15003KT 10/M03 A2986 RMK A01 T00971033  RH  040%=      5-min Rain = 0
KME1 081105Z 16003KT 10/M03 A2986 RMK A01 T00971032  RH  040%=      5-min Rain = 0
KME1 081106Z 15003KT 10/M03 A2986 RMK A01 T00971032  RH  040%=      5-min Rain = 0
KME1 081107Z 15003KT 10/M03 A2986 RMK A01 T00961032  RH  040%=      5-min Rain = 0
KME1 081108Z 14004KT 10/M03 A2986 RMK A01 T00961032  RH  040%=      5-min Rain = 0
KME1 081109Z 13004KT 10/M03 A2986 RMK A01 T00951032  RH  041%=      5-min Rain = 0
KME1 081110Z 12003KT 09/M03 A2986 RMK A01 T00941033  RH  041%=      5-min Rain = 0
KME1 081111Z 12004KT 09/M03 A2986 RMK A01 T00931032  RH  041%=      5-min Rain = 0
KME1 081112Z 11004KT 09/M03 A2986 RMK A01 T00921033  RH  041%=      5-min Rain = 0
KME1 081113Z 10004KT 09/M03 A2986 RMK A01 T00901033  RH  042%=      5-min Rain = 0
KME1 081114Z 10005KT 09/M03 A2986 RMK A01 T00901033  RH  042%=      5-min Rain = 0
KME1 081115Z 10005KT 09/M03 A2986 RMK A01 T00881034  RH  042%=      5-min Rain = 0
KME1 081116Z 10005KT 09/M03 A2986 RMK A01 T00871033  RH  043%=      5-min Rain = 0
KME1 081117Z 09004KT 09/M03 A2986 RMK A01 T00861033  RH  043%=      5-min Rain = 0
KME1 081118Z 09004KT 09/M03 A2986 RMK A01 T00881032  RH  043%=      5-min Rain = 0
KME1 081119Z 09005KT 09/M03 A2986 RMK A01 T00861033  RH  043%=      5-min Rain = 0
KME1 081120Z 09005KT 08/M03 A2986 RMK A01 T00841033  RH  043%=      5-min Rain = 0
KME1 081121Z 09005KT 08/M03 A2986 RMK A01 T00841032  RH  044%=      5-min Rain = 0
KME1 081122Z 09004KT 09/M03 A2986 RMK A01 T00851031  RH  044%=      5-min Rain = 0
KME1 081123Z 09004KT 08/M03 A2986 RMK A01 T00841031  RH  044%=      5-min Rain = 0
KME1 081124Z 10004KT 08/M03 A2986 RMK A01 T00831032  RH  044%=      5-min Rain = 0
KME1 081125Z 10004KT 08/M03 A2987 RMK A01 T00821032  RH  044%=      5-min Rain = 0
KME1 081126Z 11004KT 08/M03 A2987 RMK A01 T00821033  RH  044%=      5-min Rain = 0
KME1 081127Z 12004KT 08/M03 A2987 RMK A01 T00811032  RH  045%=      5-min Rain = 0
KME1 081128Z 13002KT 08/M03 A2987 RMK A01 T00801032  RH  045%=      5-min Rain = 0
KME1 081129Z 14003KT 08/M03 A2987 RMK A01 T00801032  RH  045%=      5-min Rain = 0
KME1 081130Z 14003KT 08/M03 A2987 RMK A01 T00811031  RH  045%=      5-min Rain = 0
KME1 081131Z 13003KT 08/M03 A2987 RMK A01 T00831031  RH  045%=      5-min Rain = 0
KME1 081132Z 13003KT 08/M03 A2987 RMK A01 T00841030  RH  044%=      5-min Rain = 0
KME1 081133Z 13003KT 09/M03 A2987 RMK A01 T00851030  RH  044%=      5-min Rain = 0
KME1 081134Z 13004KT 09/M03 A2987 RMK A01 T00861030  RH  044%=      5-min Rain = 0
KME1 081135Z 13004KT 09/M03 A2987 RMK A01 T00861031  RH  043%=      5-min Rain = 0
KME1 081136Z 14003KT 09/M03 A2987 RMK A01 T00861031  RH  043%=      5-min Rain = 0
KME1 081137Z 14003KT 09/M03 A2987 RMK A01 T00851032  RH  044%=      5-min Rain = 0
KME1 081138Z 15004KT 08/M03 A2987 RMK A01 T00841032  RH  044%=      5-min Rain = 0
KME1 081139Z 15003KT 09/M03 A2987 RMK A01 T00851032  RH  044%=      5-min Rain = 0
KME1 081140Z 15004KT 09/M03 A2987 RMK A01 T00861032  RH  043%=      5-min Rain = 0
KME1 081141Z 16003KT 09/M03 A2987 RMK A01 T00851033  RH  043%=      5-min Rain = 0
KME1 081142Z 15003KT 08/M03 A2987 RMK A01 T00841032  RH  044%=      5-min Rain = 0
KME1 081143Z 15003KT 08/M03 A2987 RMK A01 T00841032  RH  044%=      5-min Rain = 0
KME1 081144Z 14003KT 08/M03 A2987 RMK A01 T00841032  RH  044%=      5-min Rain = 0
KME1 081145Z 14003KT 08/M03 A2987 RMK A01 T00831032  RH  044%=      5-min Rain = 0
KME1 081146Z 14003KT 08/M03 A2987 RMK A01 T00831032  RH  044%=      5-min Rain = 0
KME1 081147Z 14003KT 08/M03 A2987 RMK A01 T00821032  RH  044%=      5-min Rain = 0
KME1 081148Z 13003KT 08/M03 A2987 RMK A01 T00821032  RH  044%=      5-min Rain = 0
KME1 081149Z 13003KT 08/M03 A2987 RMK A01 T00811033  RH  044%=      5-min Rain = 0
KME1 081150Z 13003KT 08/M03 A2987 RMK A01 T00801033  RH  044%=      5-min Rain = 0
KME1 081151Z 13002KT 08/M03 A2987 RMK A01 T00801034  RH  045%=      5-min Rain = 0
KME1 081152Z 13002KT 08/M03 A2987 RMK A01 T00791034  RH  045%=      5-min Rain = 0
KME1 081153Z 12002KT 08/M03 A2987 RMK A01 T00781034  RH  045%=      5-min Rain = 0
KME1 081154Z 12002KT 08/M03 A2987 RMK A01 T00781034  RH  045%=      5-min Rain = 0
KME1 081155Z 11002KT 08/M03 A2987 RMK A01 T00771033  RH  046%=      5-min Rain = 0
KME1 081156Z 10001KT 08/M03 A2987 RMK A01 T00771033  RH  046%=      5-min Rain = 0
KME1 081157Z 09000KT 08/M03 A2987 RMK A01 T00771033  RH  046%=      5-min Rain = 0
KME1 081158Z 07000KT 08/M03 A2987 RMK A01 T00761033  RH  046%=      5-min Rain = 0
KME1 081159Z 05001KT 08/M03 A2987 RMK A01 T00761033  RH  046%=      5-min Rain = 0
KME1 081200Z 03001KT 08/M03 A2987 RMK A01 T00761033  RH  046%=      5-min Rain = 0
KME1 081201Z 02002KT 08/M03 A2987 RMK A01 T00761033  RH  046%=      5-min Rain = 0
KME1 081202Z 02002KT 08/M03 A2987 RMK A01 T00771033  RH  046%=      5-min Rain = 0
KME1 081203Z 02002KT 08/M03 A2987 RMK A01 T00761034  RH  046%=      5-min Rain = 0
KME1 081204Z 03002KT 07/M03 A2987 RMK A01 T00741034  RH  046%=      5-min Rain = 0
KME1 081205Z 04003KT 07/M03 A2987 RMK A01 T00721034  RH  047%=      5-min Rain = 0
KME1 081206Z 04003KT 07/M03 A2987 RMK A01 T00711034  RH  047%=      5-min Rain = 0
KME1 081207Z 05003KT 07/M03 A2987 RMK A01 T00711033  RH  048%=      5-min Rain = 0
KME1 081208Z 05003KT 07/M03 A2987 RMK A01 T00701033  RH  048%=      5-min Rain = 0
KME1 081209Z 06003KT 07/M03 A2987 RMK A01 T00691033  RH  048%=      5-min Rain = 0
KME1 081210Z 05003KT 07/M03 A2987 RMK A01 T00681033  RH  048%=      5-min Rain = 0
KME1 081211Z 05003KT 07/M03 A2988 RMK A01 T00671034  RH  049%=      5-min Rain = 0
KME1 081212Z 05003KT 07/M03 A2988 RMK A01 T00671033  RH  049%=      5-min Rain = 0
KME1 081213Z 04003KT 07/M03 A2988 RMK A01 T00671033  RH  049%=      5-min Rain = 0
KME1 081214Z 05003KT 07/M03 A2988 RMK A01 T00661033  RH  049%=      5-min Rain = 0
KME1 081215Z 05003KT 07/M03 A2988 RMK A01 T00661033  RH  049%=      5-min Rain = 0
KME1 081216Z 04003KT 07/M03 A2988 RMK A01 T00661033  RH  049%=      5-min Rain = 0
KME1 081217Z 05003KT 07/M03 A2988 RMK A01 T00661033  RH  049%=      5-min Rain = 0
KME1 081218Z 05003KT 07/M03 A2988 RMK A01 T00651033  RH  049%=      5-min Rain = 0
KME1 081219Z 05003KT 07/M03 A2988 RMK A01 T00651033  RH  049%=      5-min Rain = 0
KME1 081220Z 05003KT 07/M03 A2988 RMK A01 T00671033  RH  049%=      5-min Rain = 0
KME1 081221Z 05002KT 07/M03 A2988 RMK A01 T00681032  RH  049%=      5-min Rain = 0
KME1 081222Z 05001KT 07/M03 A2988 RMK A01 T00691032  RH  049%=      5-min Rain = 0
KME1 081223Z 05002KT 07/M03 A2987 RMK A01 T00691032  RH  049%=      5-min Rain = 0
KME1 081224Z 06002KT 07/M03 A2987 RMK A01 T00691033  RH  048%=      5-min Rain = 0
KME1 081225Z 06002KT 07/M03 A2987 RMK A01 T00691033  RH  048%=      5-min Rain = 0
KME1 081226Z 07002KT 07/M03 A2987 RMK A01 T00691033  RH  048%=      5-min Rain = 0
KME1 081227Z 07002KT 07/M03 A2987 RMK A01 T00691033  RH  048%=      5-min Rain = 0
KME1 081228Z 07002KT 07/M03 A2987 RMK A01 T00691033  RH  048%=      5-min Rain = 0
KME1 081229Z 07001KT 07/M03 A2987 RMK A01 T00701033  RH  048%=      5-min Rain = 0
KME1 081230Z 06001KT 07/M03 A2987 RMK A01 T00691033  RH  048%=      5-min Rain = 0
KME1 081231Z 07001KT 07/M03 A2987 RMK A01 T00691033  RH  048%=      5-min Rain = 0
KME1 081232Z 06001KT 07/M03 A2987 RMK A01 T00681033  RH  048%=      5-min Rain = 0
KME1 081233Z 06001KT 07/M03 A2987 RMK A01 T00691034  RH  048%=      5-min Rain = 0
KME1 081234Z 05001KT 07/M03 A2988 RMK A01 T00701033  RH  048%=      5-min Rain = 0
KME1 081235Z 06001KT 07/M03 A2988 RMK A01 T00691033  RH  048%=      5-min Rain = 0
KME1 081236Z 07001KT 07/M03 A2988 RMK A01 T00691032  RH  048%=      5-min Rain = 0
KME1 081237Z 09001KT 07/M03 A2988 RMK A01 T00691032  RH  049%=      5-min Rain = 0
KME1 081238Z 10001KT 07/M03 A2988 RMK A01 T00691033  RH  048%=      5-min Rain = 0
KME1 081239Z 10001KT 07/M03 A2988 RMK A01 T00701033  RH  048%=      5-min Rain = 0
KME1 081240Z 10002KT 07/M03 A2988 RMK A01 T00711033  RH  048%=      5-min Rain = 0
KME1 081241Z 10001KT 07/M03 A2988 RMK A01 T00721032  RH  048%=      5-min Rain = 0
KME1 081242Z 10001KT 07/M03 A2988 RMK A01 T00721032  RH  048%=      5-min Rain = 0
KME1 081243Z 10001KT 07/M03 A2988 RMK A01 T00721033  RH  047%=      5-min Rain = 0
KME1 081244Z 10001KT 07/M03 A2988 RMK A01 T00731032  RH  047%=      5-min Rain = 0
KME1 081245Z 10001KT 07/M03 A2988 RMK A01 T00741032  RH  047%=      5-min Rain = 0
KME1 081246Z 10001KT 07/M03 A2988 RMK A01 T00741031  RH  047%=      5-min Rain = 0
KME1 081247Z 09001KT 07/M03 A2988 RMK A01 T00741032  RH  047%=      5-min Rain = 0
KME1 081248Z 08001KT 08/M03 A2988 RMK A01 T00751031  RH  047%=      5-min Rain = 0
KME1 081249Z 06001KT 08/M03 A2988 RMK A01 T00751030  RH  047%=      5-min Rain = 0
KME1 081250Z 05002KT 07/M03 A2988 RMK A01 T00741029  RH  048%=      5-min Rain = 0
KME1 081251Z 05002KT 07/M03 A2988 RMK A01 T00741028  RH  048%=      5-min Rain = 0
KME1 081252Z 04002KT 07/M03 A2988 RMK A01 T00741027  RH  049%=      5-min Rain = 0
KME1 081253Z 04002KT 07/M03 A2988 RMK A01 T00741026  RH  049%=      5-min Rain = 0
KME1 081254Z 04003KT 07/M03 A2988 RMK A01 T00741027  RH  049%=      5-min Rain = 0
KME1 081255Z 04003KT 07/M03 A2988 RMK A01 T00741025  RH  049%=      5-min Rain = 0
KME1 081256Z 04003KT 08/M03 A2988 RMK A01 T00751025  RH  049%=      5-min Rain = 0
KME1 081257Z 04003KT 08/M03 A2988 RMK A01 T00751026  RH  049%=      5-min Rain = 0
KME1 081258Z 04003KT 08/M03 A2988 RMK A01 T00761026  RH  048%=      5-min Rain = 0
KME1 081259Z 04003KT 08/M03 A2988 RMK A01 T00771026  RH  048%=      5-min Rain = 0
KME1 081300Z 04003KT 08/M03 A2988 RMK A01 T00771025  RH  048%=      5-min Rain = 0
KME1 081301Z 04003KT 08/M03 A2988 RMK A01 T00781025  RH  048%=      5-min Rain = 0
KME1 081302Z 04003KT 08/M03 A2988 RMK A01 T00791025  RH  048%=      5-min Rain = 0
KME1 081303Z 04003KT 08/M03 A2988 RMK A01 T00801026  RH  047%=      5-min Rain = 0
KME1 081304Z 03003KT 08/M02 A2988 RMK A01 T00811024  RH  047%=      5-min Rain = 0
KME1 081305Z 03003KT 08/M02 A2988 RMK A01 T00821023  RH  048%=      5-min Rain = 0
KME1 081306Z 03003KT 08/M02 A2988 RMK A01 T00831023  RH  047%=      5-min Rain = 0
KME1 081307Z 03003KT 08/M02 A2988 RMK A01 T00841024  RH  047%=      5-min Rain = 0
KME1 081308Z 03003KT 09/M02 A2988 RMK A01 T00851023  RH  047%=      5-min Rain = 0
KME1 081309Z 02003KT 09/M02 A2989 RMK A01 T00861023  RH  046%=      5-min Rain = 0
KME1 081310Z 02003KT 09/M02 A2989 RMK A01 T00871023  RH  046%=      5-min Rain = 0
KME1 081311Z 03004KT 09/M02 A2989 RMK A01 T00891023  RH  045%=      5-min Rain = 0
KME1 081312Z 03004KT 09/M02 A2989 RMK A01 T00901024  RH  044%=      5-min Rain = 0
KME1 081313Z 03004KT 09/M02 A2989 RMK A01 T00921024  RH  044%=      5-min Rain = 0
KME1 081314Z 03003KT 09/M02 A2989 RMK A01 T00931023  RH  044%=      5-min Rain = 0
KME1 081315Z 03002KT 10/M02 A2989 RMK A01 T00951021  RH  044%=      5-min Rain = 0
KME1 081316Z 04003KT 10/M02 A2989 RMK A01 T00961022  RH  044%=      5-min Rain = 0
KME1 081317Z 04003KT 10/M02 A2989 RMK A01 T00971021  RH  044%=      5-min Rain = 0
KME1 081318Z 04004KT 10/M02 A2989 RMK A01 T00971020  RH  044%=      5-min Rain = 0
KME1 081319Z 04003KT 10/M02 A2989 RMK A01 T00981022  RH  043%=      5-min Rain = 0
KME1 081320Z 02002KT 10/M02 A2989 RMK A01 T00981022  RH  043%=      5-min Rain = 0
KME1 081321Z 01001KT 10/M02 A2989 RMK A01 T00991021  RH  043%=      5-min Rain = 0
KME1 081322Z 04002KT 10/M02 A2989 RMK A01 T01001021  RH  043%=      5-min Rain = 0
KME1 081323Z 05002KT 10/M02 A2989 RMK A01 T01021019  RH  043%=      5-min Rain = 0
KME1 081324Z 05002KT 11/M02 A2989 RMK A01 T01051019  RH  042%=      5-min Rain = 0
KME1 081325Z 03001KT 11/M02 A2989 RMK A01 T01081018  RH  042%=      5-min Rain = 0
KME1 081326Z 06003KT 11/M02 A2989 RMK A01 T01091018  RH  041%=      5-min Rain = 0
KME1 081327Z 06002KT 11/M02 A2989 RMK A01 T01111019  RH  040%=      5-min Rain = 0
KME1 081328Z 03001KT 11/M02 A2989 RMK A01 T01131021  RH  039%=      5-min Rain = 0
KME1 081329Z 02002KT 11/M02 A2989 RMK A01 T01131021  RH  039%=      5-min Rain = 0
KME1 081330Z 02002KT 11/M02 A2989 RMK A01 T01131019  RH  040%=      5-min Rain = 0
KME1 081331Z 04002KT 11/M02 A2989 RMK A01 T01141018  RH  040%=      5-min Rain = 0
KME1 081332Z 04003KT 12/M02 A2989 RMK A01 T01151020  RH  039%=      5-min Rain = 0
KME1 081333Z 03002KT 12/M02 A2989 RMK A01 T01161018  RH  039%=      5-min Rain = 0
KME1 081334Z 02002KT 12/M02 A2989 RMK A01 T01171018  RH  039%=      5-min Rain = 0
KME1 081335Z 03002KT 12/M02 A2989 RMK A01 T01181019  RH  039%=      5-min Rain = 0
KME1 081336Z 02001KT 12/M02 A2989 RMK A01 T01191018  RH  039%=      5-min Rain = 0
KME1 081337Z 04002KT 12/M02 A2989 RMK A01 T01211018  RH  038%=      5-min Rain = 0
KME1 081338Z 06003KT 12/M02 A2989 RMK A01 T01221020  RH  037%=      5-min Rain = 0
KME1 081339Z 06003KT 12/M02 A2989 RMK A01 T01231021  RH  037%=      5-min Rain = 0
KME1 081340Z 06001KT 13/M02 A2989 RMK A01 T01251020  RH  036%=      5-min Rain = 0
KME1 081341Z 00000KT 13/M02 A2989 RMK A01 T01281018  RH  036%=      5-min Rain = 0
KME1 081342Z 07001KT 13/M02 A2989 RMK A01 T01301022  RH  035%=      5-min Rain = 0
KME1 081343Z 08001KT 13/M02 A2989 RMK A01 T01311023  RH  034%=      5-min Rain = 0
KME1 081344Z 06001KT 13/M02 A2989 RMK A01 T01321020  RH  035%=      5-min Rain = 0
KME1 081345Z 09001KT 14/M02 A2989 RMK A01 T01351017  RH  035%=      5-min Rain = 0
KME1 081346Z 12001KT 14/M02 A2989 RMK A01 T01371017  RH  035%=      5-min Rain = 0
KME1 081347Z 07002KT 14/M02 A2989 RMK A01 T01381022  RH  033%=      5-min Rain = 0
KME1 081348Z 06002KT 14/M02 A2989 RMK A01 T01391020  RH  033%=      5-min Rain = 0
KME1 081349Z 07003KT 14/M03 A2989 RMK A01 T01411025  RH  032%=      5-min Rain = 0
KME1 081350Z 05003KT 14/M03 A2989 RMK A01 T01411028  RH  031%=      5-min Rain = 0
KME1 081351Z 05003KT 14/M02 A2989 RMK A01 T01421024  RH  032%=      5-min Rain = 0
KME1 081352Z 04003KT 14/M02 A2989 RMK A01 T01421021  RH  032%=      5-min Rain = 0
KME1 081353Z 04003KT 14/M02 A299 RMK A01 T01441018  RH  033%=      5-min Rain = 0
KME1 081354Z 04004KT 14/M02 A299 RMK A01 T01441018  RH  033%=      5-min Rain = 0
KME1 081355Z 04003KT 15/M02 A299 RMK A01 T01451016  RH  033%=      5-min Rain = 0
KME1 081356Z 03004KT 15/M01 A299 RMK A01 T01451014  RH  033%=      5-min Rain = 0
KME1 081357Z 03005KT 15/M01 A299 RMK A01 T01451013  RH  034%=      5-min Rain = 0
KME1 081358Z 03005KT 14/M01 A299 RMK A01 T01441014  RH  034%=      5-min Rain = 0
KME1 081359Z 03006KT 14/M02 A299 RMK A01 T01431015  RH  034%=      5-min Rain = 0
KME1 081400Z 04005KT 14/M02 A299 RMK A01 T01431016  RH  033%=      5-min Rain = 0
KME1 081401Z 05004KT 15/M02 A299 RMK A01 T01451015  RH  033%=      5-min Rain = 0
KME1 081402Z 05003KT 15/M02 A299 RMK A01 T01471015  RH  033%=      5-min Rain = 0
KME1 081403Z 06003KT 15/M02 A299 RMK A01 T01481016  RH  032%=      5-min Rain = 0
KME1 081404Z 06003KT 15/M01 A299 RMK A01 T01501009  RH  033%=      5-min Rain = 0
KME1 081405Z 06002KT 15/M01 A299 RMK A01 T01521008  RH  033%=      5-min Rain = 0
KME1 081406Z 08002KT 15/M01 A299 RMK A01 T01531006  RH  034%=      5-min Rain = 0
KME1 081407Z 08004KT 16/M00 A299 RMK A01 T01551002  RH  034%=      5-min Rain = 0
KME1 081408Z 08003KT 16/M00 A299 RMK A01 T01571001  RH  034%=      5-min Rain = 0
KME1 081409Z 09003KT 16/00 A299 RMK A01 T01580001  RH  034%=      5-min Rain = 0
KME1 081410Z 14003KT 16/00 A299 RMK A01 T01600004  RH  035%=      5-min Rain = 0
KME1 081411Z 16003KT 16/01 A299 RMK A01 T01610007  RH  035%=      5-min Rain = 0
KME1 081412Z 12002KT 16/01 A299 RMK A01 T01620007  RH  035%=      5-min Rain = 0
KME1 081413Z 10003KT 16/01 A299 RMK A01 T01620008  RH  035%=      5-min Rain = 0
KME1 081414Z 10002KT 16/01 A299 RMK A01 T01620008  RH  035%=      5-min Rain = 0
KME1 081415Z 12003KT 16/01 A299 RMK A01 T01630012  RH  036%=      5-min Rain = 0
KME1 081416Z 13002KT 17/01 A299 RMK A01 T01650014  RH  036%=      5-min Rain = 0
KME1 081417Z 14002KT 17/02 A299 RMK A01 T01660017  RH  037%=      5-min Rain = 0
KME1 081418Z 15003KT 17/02 A299 RMK A01 T01680019  RH  036%=      5-min Rain = 0
KME1 081419Z 14001KT 17/02 A299 RMK A01 T01690019  RH  036%=      5-min Rain = 0
KME1 081420Z 11001KT 17/02 A299 RMK A01 T01700020  RH  036%=      5-min Rain = 0
KME1 081421Z 12003KT 17/02 A299 RMK A01 T01700020  RH  036%=      5-min Rain = 0
KME1 081422Z 15004KT 17/03 A299 RMK A01 T01730026  RH  037%=      5-min Rain = 0
KME1 081423Z 14003KT 17/03 A299 RMK A01 T01730027  RH  038%=      5-min Rain = 0
KME1 081424Z 12003KT 17/03 A299 RMK A01 T01730027  RH  038%=      5-min Rain = 0
KME1 081425Z 13004KT 17/03 A299 RMK A01 T01730028  RH  038%=      5-min Rain = 0
KME1 081426Z 14002KT 17/03 A299 RMK A01 T01730030  RH  038%=      5-min Rain = 0
KME1 081427Z 14003KT 17/03 A299 RMK A01 T01740030  RH  038%=      5-min Rain = 0
KME1 081428Z 13003KT 18/04 A299 RMK A01 T01770036  RH  039%=      5-min Rain = 0
KME1 081429Z 13003KT 18/04 A299 RMK A01 T01780035  RH  039%=      5-min Rain = 0
KME1 081430Z 17003KT 18/03 A299 RMK A01 T01780032  RH  038%=      5-min Rain = 0
KME1 081431Z 13004KT 18/03 A299 RMK A01 T01790032  RH  037%=      5-min Rain = 0
KME1 081432Z 15003KT 18/03 A299 RMK A01 T01800034  RH  038%=      5-min Rain = 0
KME1 081433Z 17003KT 18/04 A299 RMK A01 T01800041  RH  040%=      5-min Rain = 0
KME1 081434Z 18003KT 18/04 A299 RMK A01 T01800041  RH  040%=      5-min Rain = 0
KME1 081435Z 17004KT 18/04 A299 RMK A01 T01800043  RH  040%=      5-min Rain = 0
KME1 081436Z 13003KT 18/04 A299 RMK A01 T01800042  RH  040%=      5-min Rain = 0
KME1 081437Z 15002KT 18/04 A299 RMK A01 T01820039  RH  039%=      5-min Rain = 0
KME1 081438Z 14003KT 18/04 A299 RMK A01 T01820039  RH  039%=      5-min Rain = 0
KME1 081439Z 13003KT 18/04 A299 RMK A01 T01830038  RH  038%=      5-min Rain = 0
KME1 081440Z 12003KT 19/04 A299 RMK A01 T01850042  RH  039%=      5-min Rain = 0
KME1 081441Z 14004KT 19/05 A299 RMK A01 T01870047  RH  040%=      5-min Rain = 0
KME1 081442Z 16003KT 19/05 A299 RMK A01 T01890048  RH  039%=      5-min Rain = 0
KME1 081443Z 16003KT 19/05 A299 RMK A01 T01900049  RH  039%=      5-min Rain = 0
KME1 081444Z 15003KT 19/05 A299 RMK A01 T01910050  RH  039%=      5-min Rain = 0
KME1 081445Z 16001KT 19/05 A299 RMK A01 T01920051  RH  039%=      5-min Rain = 0
KME1 081446Z 15003KT 19/06 A299 RMK A01 T01930055  RH  040%=      5-min Rain = 0
KME1 081447Z 16002KT 19/05 A299 RMK A01 T01940053  RH  040%=      5-min Rain = 0
KME1 081448Z 11002KT 19/05 A299 RMK A01 T01940053  RH  040%=      5-min Rain = 0
KME1 081449Z 13003KT 19/06 A299 RMK A01 T01940055  RH  040%=      5-min Rain = 0
KME1 081450Z 18004KT 20/06 A299 RMK A01 T01960063  RH  042%=      5-min Rain = 0
KME1 081451Z 16003KT 20/06 A299 RMK A01 T01970061  RH  041%=      5-min Rain = 0
KME1 081452Z 15003KT 20/06 A299 RMK A01 T01980063  RH  041%=      5-min Rain = 0
KME1 081453Z 18003KT 20/06 A299 RMK A01 T01980062  RH  041%=      5-min Rain = 0
KME1 081454Z 18004KT 20/06 A299 RMK A01 T01980062  RH  041%=      5-min Rain = 0
KME1 081455Z 17003KT 20/06 A299 RMK A01 T01980061  RH  041%=      5-min Rain = 0
KME1 081456Z 14002KT 20/06 A299 RMK A01 T01970063  RH  042%=      5-min Rain = 0
KME1 081457Z 16002KT 20/06 A299 RMK A01 T01990064  RH  041%=      5-min Rain = 0
KME1 081458Z 15003KT 20/07 A2989 RMK A01 T02000065  RH  041%=      5-min Rain = 0
KME1 081459Z 14002KT 20/07 A2989 RMK A01 T02020068  RH  042%=      5-min Rain = 0
KME1 081500Z 14001KT 20/07 A2989 RMK A01 T02030067  RH  041%=      5-min Rain = 0
KME1 081501Z 14002KT 20/07 A2989 RMK A01 T02040069  RH  041%=      5-min Rain = 0
KME1 081502Z 15003KT 21/07 A2989 RMK A01 T02050071  RH  042%=      5-min Rain = 0
KME1 081503Z 15005KT 21/07 A2989 RMK A01 T02060073  RH  042%=      5-min Rain = 0
KME1 081504Z 16003KT 21/07 A2989 RMK A01 T02060072  RH  042%=      5-min Rain = 0
KME1 081505Z 15002KT 21/07 A2989 RMK A01 T02060074  RH  042%=      5-min Rain = 0
KME1 081506Z 19002KT 21/07 A2989 RMK A01 T02070073  RH  042%=      5-min Rain = 0
KME1 081507Z 19002KT 21/07 A2989 RMK A01 T02070073  RH  042%=      5-min Rain = 0
KME1 081508Z 20002KT 21/08 A2989 RMK A01 T02070075  RH  042%=      5-min Rain = 0
KME1 081509Z 16001KT 21/08 A2989 RMK A01 T02070078  RH  043%=      5-min Rain = 0
KME1 081510Z 18003KT 21/08 A2989 RMK A01 T02090078  RH  043%=      5-min Rain = 0
KME1 081511Z 18004KT 21/08 A2989 RMK A01 T02100079  RH  043%=      5-min Rain = 0
KME1 081512Z 20004KT 21/08 A2989 RMK A01 T02110082  RH  044%=      5-min Rain = 0
KME1 081513Z 20003KT 21/08 A2989 RMK A01 T02120084  RH  044%=      5-min Rain = 0
KME1 081514Z 23005KT 21/09 A2989 RMK A01 T02140089  RH  045%=      5-min Rain = 0
KME1 081515Z 23003KT 22/09 A2989 RMK A01 T02160090  RH  044%=      5-min Rain = 0
KME1 081516Z 21004KT 22/09 A2989 RMK A01 T02170092  RH  045%=      5-min Rain = 0
KME1 081517Z 21004KT 22/09 A2989 RMK A01 T02190092  RH  044%=      5-min Rain = 0
KME1 081518Z 24002KT 22/10 A2989 RMK A01 T02210095  RH  045%=      5-min Rain = 0
KME1 081519Z 25002KT 22/10 A2989 RMK A01 T02230098  RH  045%=      5-min Rain = 0
KME1 081520Z 20002KT 22/10 A2989 RMK A01 T02240098  RH  045%=      5-min Rain = 0
KME1 081521Z 19003KT 23/10 A2989 RMK A01 T02260097  RH  044%=      5-min Rain = 0
KME1 081522Z 11001KT 23/10 A2989 RMK A01 T02280098  RH  044%=      5-min Rain = 0
KME1 081523Z 15001KT 23/10 A2989 RMK A01 T02290100  RH  044%=      5-min Rain = 0
KME1 081524Z 14003KT 23/10 A2989 RMK A01 T02320100  RH  043%=      5-min Rain = 0
KME1 081525Z 16003KT 24/10 A2989 RMK A01 T02350101  RH  043%=      5-min Rain = 0
KME1 081526Z 16002KT 24/10 A2989 RMK A01 T02350101  RH  043%=      5-min Rain = 0
KME1 081527Z 17003KT 24/10 A2989 RMK A01 T02350101  RH  042%=      5-min Rain = 0
KME1 081528Z 20002KT 24/10 A2989 RMK A01 T02350100  RH  042%=      5-min Rain = 0
KME1 081529Z 23002KT 24/10 A2989 RMK A01 T02370103  RH  043%=      5-min Rain = 0
KME1 081530Z 21002KT 24/10 A2989 RMK A01 T02390103  RH  042%=      5-min Rain = 0
KME1 081531Z 18003KT 24/10 A2989 RMK A01 T02380104  RH  043%=      5-min Rain = 0
KME1 081532Z 19005KT 24/10 A2989 RMK A01 T02390104  RH  042%=      5-min Rain = 0
KME1 081533Z 20005KT 24/10 A2989 RMK A01 T02400100  RH  041%=      5-min Rain = 0
KME1 081534Z 20003KT 24/10 A2989 RMK A01 T02400101  RH  041%=      5-min Rain = 0
KME1 081535Z 18007KT 24/10 A2989 RMK A01 T02410100  RH  041%=      5-min Rain = 0
KME1 081536Z 17007KT 24/10 A2989 RMK A01 T02420100  RH  041%=      5-min Rain = 0
KME1 081537Z 16004KT 24/10 A2989 RMK A01 T02430100  RH  040%=      5-min Rain = 0
KME1 081538Z 18007KT 24/10 A2989 RMK A01 T02440100  RH  040%=      5-min Rain = 0
KME1 081539Z 18009KT 25/10 A2989 RMK A01 T02460098  RH  039%=      5-min Rain = 0
KME1 081540Z 20009KT 25/10 A2989 RMK A01 T02470095  RH  038%=      5-min Rain = 0
KME1 081541Z 19006KT 25/09 A2989 RMK A01 T02470094  RH  038%=      5-min Rain = 0
KME1 081542Z 17008KT 25/10 A2989 RMK A01 T02470096  RH  038%=      5-min Rain = 0
KME1 081543Z 16009KT 25/10 A2988 RMK A01 T02500095  RH  038%=      5-min Rain = 0
KME1 081544Z 16008KT 25/10 A2988 RMK A01 T02510096  RH  037%=      5-min Rain = 0
KME1 081545Z 17007KT 25/10 A2988 RMK A01 T02510097  RH  038%=      5-min Rain = 0
KME1 081546Z 23008KT 25/10 A2988 RMK A01 T02520095  RH  037%=      5-min Rain = 0
KME1 081547Z 22004KT 25/09 A2988 RMK A01 T02520093  RH  036%=      5-min Rain = 0
KME1 081548Z 24003KT 25/09 A2988 RMK A01 T02500093  RH  037%=      5-min Rain = 0
KME1 081549Z 24003KT 25/09 A2988 RMK A01 T02500093  RH  037%=      5-min Rain = 0
KME1 081550Z 24003KT 25/09 A2988 RMK A01 T02500092  RH  037%=      5-min Rain = 0
KME1 081551Z 25005KT 25/09 A2988 RMK A01 T02510088  RH  036%=      5-min Rain = 0
KME1 081552Z 23004KT 25/09 A2988 RMK A01 T02510085  RH  035%=      5-min Rain = 0
KME1 081553Z 20001KT 25/09 A2988 RMK A01 T02510088  RH  035%=      5-min Rain = 0
KME1 081554Z 23003KT 25/09 A2988 RMK A01 T02530089  RH  035%=      5-min Rain = 0
KME1 081555Z 19004KT 26/09 A2988 RMK A01 T02560090  RH  035%=      5-min Rain = 0
KME1 081556Z 14005KT 26/09 A2988 RMK A01 T02580090  RH  034%=      5-min Rain = 0
KME1 081557Z 15003KT 26/09 A2987 RMK A01 T02590088  RH  034%=      5-min Rain = 0
KME1 081558Z 18002KT 26/09 A2987 RMK A01 T02590091  RH  035%=      5-min Rain = 0
KME1 081559Z 16007KT 26/09 A2987 RMK A01 T02600087  RH  033%=      5-min Rain = 0
KME1 081600Z 17006KT 26/08 A2987 RMK A01 T02620084  RH  032%=      5-min Rain = 0
KME1 081601Z 17005G11KT 26/08 A2987 RMK A01 T02610083  RH  032%=      5-min Rain = 0
KME1 081602Z 19010KT 26/09 A2987 RMK A01 T02620085  RH  032%=      5-min Rain = 0
KME1 081603Z 20007KT 26/08 A2987 RMK A01 T02630084  RH  032%=      5-min Rain = 0
KME1 081604Z 19007KT 26/08 A2987 RMK A01 T02620083  RH  032%=      5-min Rain = 0
KME1 081605Z 17009KT 26/08 A2987 RMK A01 T02630083  RH  032%=      5-min Rain = 0
KME1 081606Z 17006KT 26/08 A2987 RMK A01 T02640081  RH  031%=      5-min Rain = 0
KME1 081607Z 18008KT 27/08 A2987 RMK A01 T02660082  RH  031%=      5-min Rain = 0
KME1 081608Z 19008KT 27/08 A2987 RMK A01 T02690083  RH  031%=      5-min Rain = 0
KME1 081609Z 22008KT 27/08 A2987 RMK A01 T02710078  RH  030%=      5-min Rain = 0
KME1 081610Z 20004KT 27/08 A2986 RMK A01 T02700078  RH  030%=      5-min Rain = 0
KME1 081611Z 18009KT 27/08 A2986 RMK A01 T02710079  RH  030%=      5-min Rain = 0
KME1 081612Z 18007KT 27/08 A2986 RMK A01 T02690076  RH  029%=      5-min Rain = 0
KME1 081613Z 20010KT 27/07 A2986 RMK A01 T02670072  RH  029%=      5-min Rain = 0
KME1 081614Z 21008KT 27/07 A2986 RMK A01 T02680069  RH  028%=      5-min Rain = 0
KME1 081615Z 23008G13KT 27/07 A2986 RMK A01 T02690071  RH  028%=      5-min Rain = 0
KME1 081616Z 22013KT 27/07 A2986 RMK A01 T02740069  RH  027%=      5-min Rain = 0
KME1 081617Z 21012KT 28/07 A2986 RMK A01 T02760066  RH  026%=      5-min Rain = 0
KME1 081618Z 20013KT 28/06 A2986 RMK A01 T02760063  RH  026%=      5-min Rain = 0
KME1 081619Z 20010KT 27/06 A2986 RMK A01 T02730062  RH  026%=      5-min Rain = 0
KME1 081620Z 20010KT 27/06 A2986 RMK A01 T02730062  RH  026%=      5-min Rain = 0
KME1 081621Z 18010KT 28/06 A2986 RMK A01 T02750064  RH  026%=      5-min Rain = 0
KME1 081622Z 21012KT 28/06 A2986 RMK A01 T02770059  RH  025%=      5-min Rain = 0
KME1 081623Z 21011KT 28/06 A2986 RMK A01 T02760056  RH  025%=      5-min Rain = 0
KME1 081624Z 21011KT 28/06 A2986 RMK A01 T02760059  RH  025%=      5-min Rain = 0
KME1 081625Z 22010KT 28/05 A2986 RMK A01 T02760053  RH  024%=      5-min Rain = 0
KME1 081626Z 21007KT 28/06 A2986 RMK A01 T02770060  RH  025%=      5-min Rain = 0
KME1 081627Z 21010G17KT 28/06 A2986 RMK A01 T02820063  RH  025%=      5-min Rain = 0
KME1 081628Z 20013KT 29/06 A2986 RMK A01 T02870059  RH  024%=      5-min Rain = 0
KME1 081629Z 20009KT 28/06 A2986 RMK A01 T02830057  RH  024%=      5-min Rain = 0
KME1 081630Z 20011KT 28/05 A2986 RMK A01 T02800054  RH  024%=      5-min Rain = 0
KME1 081631Z 22014KT 28/05 A2986 RMK A01 T02790049  RH  023%=      5-min Rain = 0
KME1 081632Z 23011KT 28/04 A2986 RMK A01 T02800039  RH  021%=      5-min Rain = 0
KME1 081633Z 22010KT 28/04 A2986 RMK A01 T02810039  RH  021%=      5-min Rain = 0
KME1 081634Z 21007G12KT 28/05 A2986 RMK A01 T02810046  RH  022%=      5-min Rain = 0
KME1 081635Z 21013KT 28/05 A2985 RMK A01 T02810048  RH  023%=      5-min Rain = 0
KME1 081636Z 20010KT 28/05 A2985 RMK A01 T02830047  RH  022%=      5-min Rain = 0
KME1 081637Z 20011KT 29/05 A2985 RMK A01 T02860047  RH  022%=      5-min Rain = 0
KME1 081638Z 21013KT 29/05 A2985 RMK A01 T02850048  RH  022%=      5-min Rain = 0
KME1 081639Z 22010KT 28/05 A2985 RMK A01 T02830049  RH  022%=      5-min Rain = 0
KME1 081640Z 21012KT 28/05 A2985 RMK A01 T02820047  RH  022%=      5-min Rain = 0
KME1 081641Z 22010KT 28/04 A2985 RMK A01 T02840044  RH  022%=      5-min Rain = 0
KME1 081642Z 23011G16KT 29/04 A2985 RMK A01 T02870044  RH  021%=      5-min Rain = 0
KME1 081643Z 21013KT 29/05 A2985 RMK A01 T02890048  RH  022%=      5-min Rain = 0
KME1 081644Z 21012KT 29/05 A2985 RMK A01 T02900046  RH  021%=      5-min Rain = 0
KME1 081645Z 21010KT 29/04 A2985 RMK A01 T02890038  RH  020%=      5-min Rain = 0
KME1 081646Z 21009KT 29/04 A2985 RMK A01 T02880040  RH  021%=      5-min Rain = 0
KME1 081647Z 22008KT 29/04 A2985 RMK A01 T02910044  RH  021%=      5-min Rain = 0
KME1 081648Z 19009KT 29/05 A2985 RMK A01 T02920049  RH  021%=      5-min Rain = 0
KME1 081649Z 21009KT 29/05 A2985 RMK A01 T02910051  RH  022%=      5-min Rain = 0
KME1 081650Z 24009KT 29/04 A2985 RMK A01 T02910043  RH  021%=      5-min Rain = 0
KME1 081651Z 21012KT 29/04 A2985 RMK A01 T02920041  RH  020%=      5-min Rain = 0
KME1 081652Z 22012KT 29/05 A2985 RMK A01 T02930046  RH  021%=      5-min Rain = 0
KME1 081653Z 20011KT 29/04 A2985 RMK A01 T02920043  RH  020%=      5-min Rain = 0
KME1 081654Z 20015KT 29/04 A2985 RMK A01 T02920037  RH  020%=      5-min Rain = 0
KME1 081655Z 20014KT 29/04 A2985 RMK A01 T02930039  RH  020%=      5-min Rain = 0
KME1 081656Z 20011KT 29/04 A2985 RMK A01 T02920039  RH  020%=      5-min Rain = 0
KME1 081657Z 20012KT 29/04 A2985 RMK A01 T02910042  RH  020%=      5-min Rain = 0
KME1 081658Z 21011KT 29/05 A2985 RMK A01 T02910047  RH  021%=      5-min Rain = 0
KME1 081659Z 21013KT 29/04 A2985 RMK A01 T02940041  RH  020%=      5-min Rain = 0
KME1 081700Z 21012KT 29/03 A2985 RMK A01 T02940034  RH  019%=      5-min Rain = 0
KME1 081701Z 23012G17KT 29/04 A2984 RMK A01 T02940037  RH  019%=      5-min Rain = 0
KME1 081702Z 23014KT 30/04 A2985 RMK A01 T02960035  RH  019%=      5-min Rain = 0
KME1 081703Z 22012KT 30/04 A2985 RMK A01 T02980036  RH  019%=      5-min Rain = 0
KME1 081704Z 23012G18KT 30/04 A2984 RMK A01 T02980036  RH  019%=      5-min Rain = 0
KME1 081705Z 22014KT 30/03 A2984 RMK A01 T02960033  RH  019%=      5-min Rain = 0
KME1 081706Z 21014KT 30/03 A2984 RMK A01 T02950027  RH  018%=      5-min Rain = 0
KME1 081707Z 22012KT 29/03 A2984 RMK A01 T02930028  RH  018%=      5-min Rain = 0
KME1 081708Z 23012KT 29/03 A2984 RMK A01 T02940027  RH  018%=      5-min Rain = 0
KME1 081709Z 23008KT 30/02 A2984 RMK A01 T02950020  RH  017%=      5-min Rain = 0
KME1 081710Z 22010KT 30/03 A2984 RMK A01 T02970028  RH  018%=      5-min Rain = 0
KME1 081711Z 24012KT 30/03 A2984 RMK A01 T03010033  RH  018%=      5-min Rain = 0
KME1 081712Z 23008KT 30/04 A2984 RMK A01 T03010035  RH  018%=      5-min Rain = 0
KME1 081713Z 22014KT 30/04 A2984 RMK A01 T03010035  RH  018%=      5-min Rain = 0
KME1 081714Z 22011KT 30/03 A2984 RMK A01 T03000033  RH  018%=      5-min Rain = 0
KME1 081715Z 21010G17KT 30/04 A2984 RMK A01 T02980038  RH  019%=      5-min Rain = 0
KME1 081716Z 22015KT 30/03 A2984 RMK A01 T03010028  RH  018%=      5-min Rain = 0
KME1 081717Z 23013KT 30/03 A2984 RMK A01 T03010027  RH  017%=      5-min Rain = 0
KME1 081718Z 23012KT 30/03 A2984 RMK A01 T03000026  RH  017%=      5-min Rain = 0
KME1 081719Z 23010KT 30/02 A2984 RMK A01 T03010024  RH  017%=      5-min Rain = 0
KME1 081720Z 23008KT 30/02 A2984 RMK A01 T03000022  RH  017%=      5-min Rain = 0
KME1 081721Z 20008KT 30/03 A2984 RMK A01 T03000027  RH  017%=      5-min Rain = 0
KME1 081722Z 21011KT 30/03 A2984 RMK A01 T03020029  RH  018%=      5-min Rain = 0
KME1 081723Z 21010KT 30/03 A2984 RMK A01 T03020029  RH  018%=      5-min Rain = 0
KME1 081724Z 22007KT 30/03 A2984 RMK A01 T02990029  RH  018%=      5-min Rain = 0
KME1 081725Z 20012KT 30/03 A2984 RMK A01 T03010030  RH  018%=      5-min Rain = 0
KME1 081726Z 22010KT 30/03 A2984 RMK A01 T03020026  RH  017%=      5-min Rain = 0
KME1 081727Z 22011KT 31/03 A2984 RMK A01 T03050028  RH  017%=      5-min Rain = 0
KME1 081728Z 20009KT 31/03 A2984 RMK A01 T03050029  RH  017%=      5-min Rain = 0
KME1 081729Z 21009KT 31/03 A2984 RMK A01 T03050032  RH  018%=      5-min Rain = 0
KME1 081730Z 19007KT 31/03 A2984 RMK A01 T03060028  RH  017%=      5-min Rain = 0
KME1 081731Z 22011G18KT 30/03 A2984 RMK A01 T03040028  RH  017%=      5-min Rain = 0
KME1 081732Z 23014KT 31/01 A2984 RMK A01 T03070012  RH  015%=      5-min Rain = 0
KME1 081733Z 23012KT 31/01 A2984 RMK A01 T03100006  RH  014%=      5-min Rain = 0
KME1 081734Z 22008KT 31/01 A2984 RMK A01 T03100006  RH  014%=      5-min Rain = 0
KME1 081735Z 23008KT 31/01 A2983 RMK A01 T03090008  RH  014%=      5-min Rain = 0
KME1 081736Z 24009G16KT 31/01 A2983 RMK A01 T03100007  RH  014%=      5-min Rain = 0
KME1 081737Z 24015KT 31/00 A2983 RMK A01 T03100001  RH  014%=      5-min Rain = 0
KME1 081738Z 25016KT 31/M01 A2983 RMK A01 T03101005  RH  013%=      5-min Rain = 0
KME1 081739Z 25012KT 31/M01 A2983 RMK A01 T03081010  RH  013%=      5-min Rain = 0
KME1 081740Z 24013G19KT 31/M01 A2983 RMK A01 T03071005  RH  013%=      5-min Rain = 0
KME1 081741Z 23012KT 31/M00 A2983 RMK A01 T03091002  RH  014%=      5-min Rain = 0
KME1 081742Z 23013KT 31/M00 A2983 RMK A01 T03101003  RH  013%=      5-min Rain = 0
KME1 081743Z 23013KT 31/M01 A2983 RMK A01 T03111011  RH  012%=      5-min Rain = 0
KME1 081744Z 23010KT 31/M02 A2983 RMK A01 T03111015  RH  012%=      5-min Rain = 0
KME1 081745Z 24008KT 31/M01 A2983 RMK A01 T03111011  RH  012%=      5-min Rain = 0
KME1 081746Z 24009KT 31/M00 A2983 RMK A01 T03121004  RH  013%=      5-min Rain = 0
KME1 081747Z 26009KT 31/M01 A2983 RMK A01 T03141011  RH  012%=      5-min Rain = 0
KME1 081748Z 26007KT 31/M01 A2983 RMK A01 T03131014  RH  012%=      5-min Rain = 0
KME1 081749Z 24006KT 31/M02 A2983 RMK A01 T03101015  RH  012%=      5-min Rain = 0
KME1 081750Z 24012KT 31/M02 A2983 RMK A01 T03101016  RH  012%=      5-min Rain = 0
KME1 081751Z 23013KT 31/M02 A2983 RMK A01 T03111021  RH  012%=      5-min Rain = 0
KME1 081752Z 26013KT 31/M03 A2983 RMK A01 T03131026  RH  011%=      5-min Rain = 0
KME1 081753Z 27011KT 31/M03 A2983 RMK A01 T03141032  RH  011%=      5-min Rain = 0
KME1 081754Z 25012G18KT 31/M03 A2982 RMK A01 T03131032  RH  011%=      5-min Rain = 0
KME1 081755Z 24008KT 31/M03 A2982 RMK A01 T03121026  RH  011%=      5-min Rain = 0
KME1 081756Z 26005KT 32/M02 A2982 RMK A01 T03151020  RH  011%=      5-min Rain = 0
KME1 081757Z 25008KT 32/M03 A2982 RMK A01 T03161026  RH  011%=      5-min Rain = 0
KME1 081758Z 25010KT 32/M03 A2982 RMK A01 T03151025  RH  011%=      5-min Rain = 0
KME1 081759Z 23006KT 31/M02 A2982 RMK A01 T03141023  RH  011%=      5-min Rain = 0
KME1 081800Z 24012KT 32/M02 A2982 RMK A01 T03171020  RH  011%=      5-min Rain = 0
KME1 081801Z 23017KT 32/M03 A2982 RMK A01 T03221032  RH  010%=      5-min Rain = 0
KME1 081802Z 24013KT 32/M04 A2982 RMK A01 T03221044  RH  009%=      5-min Rain = 0
KME1 081803Z 23011KT 32/M04 A2982 RMK A01 T03211039  RH  010%=      5-min Rain = 0
KME1 081804Z 23011KT 32/M04 A2982 RMK A01 T03201040  RH  010%=      5-min Rain = 0
KME1 081805Z 23009KT 32/M04 A2982 RMK A01 T03171037  RH  010%=      5-min Rain = 0
KME1 081806Z 22013KT 32/M03 A2982 RMK A01 T03171033  RH  010%=      5-min Rain = 0
KME1 081807Z 22011KT 32/M03 A2982 RMK A01 T03161031  RH  010%=      5-min Rain = 0
KME1 081808Z 24009KT 32/M03 A2982 RMK A01 T03151033  RH  010%=      5-min Rain = 0
KME1 081809Z 25007KT 32/M03 A2982 RMK A01 T03151025  RH  011%=      5-min Rain = 0
KME1 081810Z 25007KT 32/M03 A2982 RMK A01 T03171025  RH  011%=      5-min Rain = 0
KME1 081811Z 26011KT 32/M03 A2982 RMK A01 T03181032  RH  010%=      5-min Rain = 0
KME1 081812Z 27006KT 32/M04 A2982 RMK A01 T03161039  RH  010%=      5-min Rain = 0
KME1 081813Z 26006KT 32/M04 A2982 RMK A01 T03151035  RH  010%=      5-min Rain = 0
KME1 081814Z 27010G15KT 32/M03 A2982 RMK A01 T03161033  RH  010%=      5-min Rain = 0
KME1 081815Z 26007KT 32/M03 A2982 RMK A01 T03181032  RH  010%=      5-min Rain = 0
KME1 081816Z 24011KT 32/M03 A2982 RMK A01 T03201027  RH  011%=      5-min Rain = 0
KME1 081817Z 25009G15KT 32/M03 A2981 RMK A01 T03231032  RH  010%=      5-min Rain = 0
KME1 081818Z 23011KT 32/M03 A2981 RMK A01 T03211034  RH  010%=      5-min Rain = 0
KME1 081819Z 22011KT 32/M03 A2981 RMK A01 T03191029  RH  010%=      5-min Rain = 0
KME1 081820Z 24009KT 32/M03 A2981 RMK A01 T03211030  RH  010%=      5-min Rain = 0
KME1 081821Z 27008KT 32/M03 A2981 RMK A01 T03231030  RH  010%=      5-min Rain = 0
KME1 081822Z 26010KT 32/M04 A2981 RMK A01 T03221040  RH  009%=      5-min Rain = 0
KME1 081823Z 29012KT 32/M04 A2981 RMK A01 T03201038  RH  010%=      5-min Rain = 0
KME1 081824Z 28011G16KT 32/M04 A2981 RMK A01 T03201041  RH  009%=      5-min Rain = 0
KME1 081825Z 29008KT 32/M04 A2981 RMK A01 T03191039  RH  010%=      5-min Rain = 0
KME1 081826Z 26012G18KT 32/M04 A2981 RMK A01 T03191038  RH  010%=      5-min Rain = 0
KME1 081827Z 25010KT 32/M05 A2981 RMK A01 T03191045  RH  009%=      5-min Rain = 0
KME1 081828Z 26011KT 32/M04 A2981 RMK A01 T03191042  RH  010%=      5-min Rain = 0
KME1 081829Z 24008KT 32/M05 A2981 RMK A01 T03191046  RH  009%=      5-min Rain = 0
KME1 081830Z 27005KT 32/M04 A2981 RMK A01 T03181036  RH  010%=      5-min Rain = 0
KME1 081831Z 29009KT 32/M03 A2981 RMK A01 T03211031  RH  010%=      5-min Rain = 0
KME1 081832Z 30007KT 32/M03 A2981 RMK A01 T03241034  RH  010%=      5-min Rain = 0
KME1 081833Z 29007KT 32/M03 A2981 RMK A01 T03241034  RH  010%=      5-min Rain = 0
KME1 081834Z 30007KT 32/M04 A2981 RMK A01 T03221036  RH  010%=      5-min Rain = 0
KME1 081835Z 31005KT 32/M03 A298 RMK A01 T03211032  RH  010%=      5-min Rain = 0
KME1 081836Z 30011KT 32/M03 A298 RMK A01 T03211027  RH  010%=      5-min Rain = 0
KME1 081837Z 27009KT 32/M03 A298 RMK A01 T03231031  RH  010%=      5-min Rain = 0
KME1 081838Z 25010KT 33/M03 A298 RMK A01 T03251032  RH  010%=      5-min Rain = 0
KME1 081839Z 25011KT 33/M04 A298 RMK A01 T03271036  RH  009%=      5-min Rain = 0
KME1 081840Z 26008KT 33/M04 A298 RMK A01 T03251044  RH  009%=      5-min Rain = 0
KME1 081841Z 25008KT 32/M05 A298 RMK A01 T03231046  RH  009%=      5-min Rain = 0
KME1 081842Z 25009KT 32/M04 A298 RMK A01 T03211040  RH  010%=      5-min Rain = 0
KME1 081843Z 26007G12KT 32/M04 A298 RMK A01 T03221039  RH  010%=      5-min Rain = 0
KME1 081844Z 24005KT 32/M04 A298 RMK A01 T03231037  RH  010%=      5-min Rain = 0
KME1 081845Z 25007KT 32/M03 A298 RMK A01 T03231032  RH  010%=      5-min Rain = 0
KME1 081846Z 28011KT 33/M04 A298 RMK A01 T03251035  RH  010%=      5-min Rain = 0
KME1 081847Z 29011KT 32/M04 A298 RMK A01 T03241041  RH  009%=      5-min Rain = 0
KME1 081848Z 28008KT 32/M04 A298 RMK A01 T03221042  RH  009%=      5-min Rain = 0
KME1 081849Z 28012KT 32/M04 A298 RMK A01 T03221038  RH  010%=      5-min Rain = 0
KME1 081850Z 29009KT 32/M04 A298 RMK A01 T03231041  RH  009%=      5-min Rain = 0
KME1 081851Z 29008G13KT 32/M04 A298 RMK A01 T03231037  RH  010%=      5-min Rain = 0
KME1 081852Z 29009KT 32/M04 A298 RMK A01 T03241041  RH  009%=      5-min Rain = 0
KME1 081853Z 29006KT 32/M04 A298 RMK A01 T03231040  RH  009%=      5-min Rain = 0
KME1 081854Z 25003KT 32/M05 A298 RMK A01 T03221047  RH  009%=      5-min Rain = 0
KME1 081855Z 24009KT 32/M04 A298 RMK A01 T03221043  RH  009%=      5-min Rain = 0
KME1 081856Z 25008G13KT 32/M05 A298 RMK A01 T03231054  RH  008%=      5-min Rain = 0
KME1 081857Z 27008KT 32/M05 A298 RMK A01 T03211054  RH  009%=      5-min Rain = 0
KME1 081858Z 26007KT 32/M06 A298 RMK A01 T03201056  RH  008%=      5-min Rain = 0
KME1 081859Z 27005KT 32/M06 A298 RMK A01 T03191059  RH  008%=      5-min Rain = 0
KME1 081900Z 30007KT 32/M05 A298 RMK A01 T03211047  RH  009%=      5-min Rain = 0
KME1 081901Z 30008KT 33/M05 A298 RMK A01 T03251051  RH  009%=      5-min Rain = 0
KME1 081902Z 29011KT 33/M05 A298 RMK A01 T03281050  RH  008%=      5-min Rain = 0
KME1 081903Z 27012KT 33/M06 A298 RMK A01 T03301059  RH  008%=      5-min Rain = 0
KME1 081904Z 27010KT 33/M07 A298 RMK A01 T03321072  RH  007%=      5-min Rain = 0
KME1 081905Z 26011KT 33/M07 A298 RMK A01 T03301070  RH  007%=      5-min Rain = 0
KME1 081906Z 27010KT 33/M06 A298 RMK A01 T03301063  RH  008%=      5-min Rain = 0
KME1 081907Z 27008KT 33/M06 A298 RMK A01 T03281062  RH  008%=      5-min Rain = 0
KME1 081908Z 27005KT 33/M06 A298 RMK A01 T03251060  RH  008%=      5-min Rain = 0
KME1 081909Z 26005KT 32/M06 A298 RMK A01 T03241064  RH  008%=      5-min Rain = 0
KME1 081910Z 28008G15KT 32/M06 A2979 RMK A01 T03231063  RH  008%=      5-min Rain = 0
KME1 081911Z 29008KT 32/M06 A298 RMK A01 T03221063  RH  008%=      5-min Rain = 0
KME1 081912Z 28007KT 32/M06 A2979 RMK A01 T03221064  RH  008%=      5-min Rain = 0
KME1 081913Z 26005KT 32/M05 A2979 RMK A01 T03231054  RH  008%=      5-min Rain = 0
KME1 081914Z 24008G16KT 33/M06 A2979 RMK A01 T03271057  RH  008%=      5-min Rain = 0
KME1 081915Z 26012KT 33/M07 A2979 RMK A01 T03291069  RH  007%=      5-min Rain = 0
KME1 081916Z 26011KT 33/M08 A2979 RMK A01 T03281077  RH  007%=      5-min Rain = 0
KME1 081917Z 30007KT 33/M07 A2979 RMK A01 T03251074  RH  007%=      5-min Rain = 0
KME1 081918Z 30006KT 32/M08 A2979 RMK A01 T03241077  RH  007%=      5-min Rain = 0
KME1 081919Z 32004KT 32/M08 A2979 RMK A01 T03231080  RH  007%=      5-min Rain = 0
KME1 081920Z 32005KT 32/M08 A2979 RMK A01 T03221076  RH  007%=      5-min Rain = 0
KME1 081921Z 29012KT 32/M07 A2979 RMK A01 T03241074  RH  007%=      5-min Rain = 0
KME1 081922Z 28013KT 33/M07 A2979 RMK A01 T03281074  RH  007%=      5-min Rain = 0
KME1 081923Z 29013KT 33/M07 A2979 RMK A01 T03281070  RH  007%=      5-min Rain = 0
KME1 081924Z 30012KT 33/M07 A2979 RMK A01 T03281074  RH  007%=      5-min Rain = 0
KME1 081925Z 27009KT 33/M08 A2979 RMK A01 T03281075  RH  007%=      5-min Rain = 0
KME1 081926Z 28004KT 33/M08 A2979 RMK A01 T03271075  RH  007%=      5-min Rain = 0
KME1 081927Z 25005KT 33/M07 A2979 RMK A01 T03251073  RH  007%=      5-min Rain = 0
KME1 081928Z 22004KT 33/M08 A2979 RMK A01 T03261077  RH  007%=      5-min Rain = 0
KME1 081929Z 28007G12KT 33/M07 A2979 RMK A01 T03251074  RH  007%=      5-min Rain = 0
KME1 081930Z 25012KT 33/M07 A2979 RMK A01 T03271069  RH  007%=      5-min Rain = 0
KME1 081931Z 25006KT 33/M08 A2979 RMK A01 T03251084  RH  007%=      5-min Rain = 0
KME1 081932Z 24007KT 32/M07 A2979 RMK A01 T03211073  RH  007%=      5-min Rain = 0
KME1 081933Z 25004KT 32/M08 A2979 RMK A01 T03231078  RH  007%=      5-min Rain = 0
KME1 081934Z 25003KT 32/M08 A2979 RMK A01 T03231079  RH  007%=      5-min Rain = 0
KME1 081935Z 31006KT 32/M07 A2979 RMK A01 T03221071  RH  007%=      5-min Rain = 0
KME1 081936Z 30007KT 33/M06 A2979 RMK A01 T03251063  RH  008%=      5-min Rain = 0
KME1 081937Z 30008KT 33/M07 A2979 RMK A01 T03281067  RH  007%=      5-min Rain = 0
KME1 081938Z 30013KT 33/M07 A2979 RMK A01 T03301069  RH  007%=      5-min Rain = 0
KME1 081939Z 29011KT 33/M08 A2979 RMK A01 T03281075  RH  007%=      5-min Rain = 0
KME1 081940Z 28011G16KT 33/M07 A2979 RMK A01 T03281070  RH  007%=      5-min Rain = 0
KME1 081941Z 31012KT 33/M06 A2979 RMK A01 T03301064  RH  008%=      5-min Rain = 0
KME1 081942Z 32012KT 33/M07 A2979 RMK A01 T03311070  RH  007%=      5-min Rain = 0
KME1 081943Z 32010KT 33/M07 A2979 RMK A01 T03271074  RH  007%=      5-min Rain = 0
KME1 081944Z 35006KT 32/M08 A2979 RMK A01 T03231080  RH  007%=      5-min Rain = 0
KME1 081945Z 33004KT 32/M07 A2979 RMK A01 T03211070  RH  008%=      5-min Rain = 0
KME1 081946Z 35006KT 32/M08 A2979 RMK A01 T03221077  RH  007%=      5-min Rain = 0
KME1 081947Z 33003KT 32/M08 A2979 RMK A01 T03221079  RH  007%=      5-min Rain = 0
KME1 081948Z 27005KT 32/M08 A2978 RMK A01 T03211076  RH  007%=      5-min Rain = 0
KME1 081949Z 29008KT 32/M07 A2978 RMK A01 T03221069  RH  008%=      5-min Rain = 0
KME1 081950Z 30009KT 33/M07 A2978 RMK A01 T03261068  RH  007%=      5-min Rain = 0
KME1 081951Z 27003KT 33/M08 A2978 RMK A01 T03271075  RH  007%=      5-min Rain = 0
KME1 081952Z 27003G9KT 32/M08 A2978 RMK A01 T03241079  RH  007%=      5-min Rain = 0
KME1 081953Z 25006KT 32/M07 A2978 RMK A01 T03241066  RH  008%=      5-min Rain = 0
KME1 081954Z 25008KT 33/M07 A2978 RMK A01 T03251069  RH  007%=      5-min Rain = 0
KME1 081955Z 27007KT 33/M07 A2978 RMK A01 T03261070  RH  007%=      5-min Rain = 0
KME1 081956Z 29008KT 33/M06 A2978 RMK A01 T03301055  RH  008%=      5-min Rain = 0
KME1 081957Z 28010KT 33/M07 A2978 RMK A01 T03331065  RH  007%=      5-min Rain = 0
KME1 081958Z 32010KT 33/M07 A2978 RMK A01 T03321072  RH  007%=      5-min Rain = 0
KME1 081959Z 30011KT 33/M08 A2978 RMK A01 T03291076  RH  007%=      5-min Rain = 0
KME1 082000Z 28013KT 33/M08 A2978 RMK A01 T03281078  RH  007%=      5-min Rain = 0
KME1 082001Z 30012KT 33/M08 A2978 RMK A01 T03261079  RH  007%=      5-min Rain = 0
KME1 082002Z 31008KT 32/M09 A2978 RMK A01 T03231085  RH  007%=      5-min Rain = 0
KME1 082003Z 34008KT 32/M08 A2978 RMK A01 T03221076  RH  007%=      5-min Rain = 0
KME1 082004Z 35005KT 32/M08 A2978 RMK A01 T03241077  RH  007%=      5-min Rain = 0
KME1 082005Z 31008G14KT 33/M07 A2978 RMK A01 T03261068  RH  007%=      5-min Rain = 0
KME1 082006Z 30013KT 33/M07 A2978 RMK A01 T03301073  RH  007%=      5-min Rain = 0
KME1 082007Z 30013KT 33/M08 A2978 RMK A01 T03301077  RH  007%=      5-min Rain = 0
KME1 082008Z 30011KT 33/M08 A2978 RMK A01 T03291081  RH  007%=      5-min Rain = 0
KME1 082009Z 29014KT 33/M08 A2978 RMK A01 T03281081  RH  007%=      5-min Rain = 0
KME1 082010Z 30010KT 33/M08 A2978 RMK A01 T03261083  RH  007%=      5-min Rain = 0
KME1 082011Z 31006KT 33/M08 A2978 RMK A01 T03261081  RH  007%=      5-min Rain = 0
KME1 082012Z 32005KT 33/M09 A2978 RMK A01 T03261085  RH  007%=      5-min Rain = 0
KME1 082013Z 29008G14KT 33/M08 A2978 RMK A01 T03251083  RH  007%=      5-min Rain = 0
KME1 082014Z 28011KT 33/M08 A2978 RMK A01 T03251081  RH  007%=      5-min Rain = 0
KME1 082015Z 29011KT 33/M08 A2978 RMK A01 T03271083  RH  007%=      5-min Rain = 0
KME1 082016Z 28011KT 33/M09 A2978 RMK A01 T03281086  RH  006%=      5-min Rain = 0
KME1 082017Z 28007KT 33/M08 A2977 RMK A01 T03261084  RH  007%=      5-min Rain = 0
KME1 082018Z 30004KT 33/M08 A2977 RMK A01 T03271075  RH  007%=      5-min Rain = 0
KME1 082019Z 35006KT 33/M08 A2977 RMK A01 T03291079  RH  007%=      5-min Rain = 0
KME1 082020Z 34009KT 33/M07 A2977 RMK A01 T03321073  RH  007%=      5-min Rain = 0
KME1 082021Z 31008KT 33/M08 A2977 RMK A01 T03331081  RH  007%=      5-min Rain = 0
KME1 082022Z 32004KT 33/M09 A2977 RMK A01 T03291089  RH  006%=      5-min Rain = 0
KME1 082023Z 29003KT 33/M09 A2977 RMK A01 T03271088  RH  006%=      5-min Rain = 0
KME1 082024Z 29003KT 33/M09 A2977 RMK A01 T03261091  RH  006%=      5-min Rain = 0
KME1 082025Z 31005KT 33/M09 A2976 RMK A01 T03271087  RH  006%=      5-min Rain = 0
KME1 082026Z 33006KT 33/M09 A2976 RMK A01 T03271090  RH  006%=      5-min Rain = 0
KME1 082027Z 32012KT 33/M08 A2976 RMK A01 T03281083  RH  007%=      5-min Rain = 0
KME1 082028Z 31012KT 33/M09 A2976 RMK A01 T03311088  RH  006%=      5-min Rain = 0
KME1 082029Z 33011KT 33/M10 A2976 RMK A01 T03301096  RH  006%=      5-min Rain = 0
KME1 082030Z 30013KT 33/M09 A2976 RMK A01 T03281093  RH  006%=      5-min Rain = 0
KME1 082031Z 30011KT 33/M09 A2976 RMK A01 T03281093  RH  006%=      5-min Rain = 0
KME1 082032Z 30013KT 33/M09 A2976 RMK A01 T03281092  RH  006%=      5-min Rain = 0
KME1 082033Z 32011KT 33/M09 A2976 RMK A01 T03291093  RH  006%=      5-min Rain = 0
KME1 082034Z 32011KT 33/M09 A2976 RMK A01 T03281094  RH  006%=      5-min Rain = 0
KME1 082035Z 31010KT 33/M09 A2976 RMK A01 T03291091  RH  006%=      5-min Rain = 0
KME1 082036Z 32011KT 33/M09 A2976 RMK A01 T03291094  RH  006%=      5-min Rain = 0
KME1 082037Z 32010KT 33/M09 A2976 RMK A01 T03281093  RH  006%=      5-min Rain = 0
KME1 082038Z 33011KT 33/M09 A2976 RMK A01 T03291089  RH  006%=      5-min Rain = 0
KME1 082039Z 33010KT 33/M10 A2976 RMK A01 T03281098  RH  006%=      5-min Rain = 0
KME1 082040Z 32008KT 33/M09 A2976 RMK A01 T03271088  RH  006%=      5-min Rain = 0
KME1 082041Z 33005KT 33/M09 A2976 RMK A01 T03291091  RH  006%=      5-min Rain = 0
KME1 082042Z 33005KT 33/M09 A2975 RMK A01 T03291090  RH  006%=      5-min Rain = 0
KME1 082043Z 32006KT 33/M09 A2975 RMK A01 T03291090  RH  006%=      5-min Rain = 0
KME1 082044Z 33002KT 33/M09 A2975 RMK A01 T03301091  RH  006%=      5-min Rain = 0
KME1 082045Z 28008KT 33/M09 A2975 RMK A01 T03301088  RH  006%=      5-min Rain = 0
KME1 082046Z 32010KT 33/M09 A2975 RMK A01 T03311094  RH  006%=      5-min Rain = 0
KME1 082047Z 33014KT 33/M09 A2975 RMK A01 T03311091  RH  006%=      5-min Rain = 0
KME1 082048Z 31013G18KT 33/M09 A2975 RMK A01 T03311090  RH  006%=      5-min Rain = 0
KME1 082049Z 30009KT 33/M09 A2975 RMK A01 T03321086  RH  006%=      5-min Rain = 0
KME1 082050Z 29011KT 33/M09 A2975 RMK A01 T03341090  RH  006%=      5-min Rain = 0
KME1 082051Z 27011KT 33/M09 A2975 RMK A01 T03321089  RH  006%=      5-min Rain = 0
KME1 082052Z 26012KT 33/M10 A2975 RMK A01 T03321098  RH  006%=      5-min Rain = 0
KME1 082053Z 25012KT 33/M10 A2975 RMK A01 T03311096  RH  006%=      5-min Rain = 0
KME1 082054Z 26009KT 33/M10 A2975 RMK A01 T03301099  RH  006%=      5-min Rain = 0
KME1 082055Z 26007KT 33/M10 A2975 RMK A01 T03291097  RH  006%=      5-min Rain = 0
KME1 082056Z 24005KT 33/M10 A2975 RMK A01 T03281096  RH  006%=      5-min Rain = 0
KME1 082057Z 25006KT 33/M09 A2975 RMK A01 T03281090  RH  006%=      5-min Rain = 0
KME1 082058Z 28004KT 33/M09 A2975 RMK A01 T03321090  RH  006%=      5-min Rain = 0
KME1 082059Z 29005KT 33/M09 A2975 RMK A01 T03331086  RH  006%=      5-min Rain = 0
KME1 082100Z 27005KT 34/M10 A2975 RMK A01 T03351096  RH  006%=      5-min Rain = 0
KME1 082101Z 31008G13KT 33/M10 A2975 RMK A01 T03321097  RH  006%=      5-min Rain = 0
KME1 082102Z 32011KT 33/M10 A2975 RMK A01 T03301100  RH  006%=      5-min Rain = 0
KME1 082103Z 31011KT 33/M10 A2975 RMK A01 T03291097  RH  006%=      5-min Rain = 0
KME1 082104Z 32011KT 33/M10 A2975 RMK A01 T03291098  RH  006%=      5-min Rain = 0
KME1 082105Z 29010KT 33/M09 A2975 RMK A01 T03291093  RH  006%=      5-min Rain = 0
KME1 082106Z 27009KT 33/M10 A2975 RMK A01 T03311097  RH  006%=      5-min Rain = 0
KME1 082107Z 27010KT 33/M10 A2975 RMK A01 T03301101  RH  006%=      5-min Rain = 0
KME1 082108Z 27009KT 33/M10 A2975 RMK A01 T03281097  RH  006%=      5-min Rain = 0
KME1 082109Z 23010KT 33/M09 A2975 RMK A01 T03291093  RH  006%=      5-min Rain = 0
KME1 082110Z 24011KT 33/M10 A2975 RMK A01 T03301095  RH  006%=      5-min Rain = 0
KME1 082111Z 26010KT 33/M10 A2975 RMK A01 T03291095  RH  006%=      5-min Rain = 0
KME1 082112Z 24005G10KT 33/M11 A2975 RMK A01 T03281105  RH  006%=      5-min Rain = 0
KME1 082113Z 29001KT 33/M11 A2974 RMK A01 T03271105  RH  006%=      5-min Rain = 0
KME1 082114Z 20000KT 33/M11 A2974 RMK A01 T03261105  RH  006%=      5-min Rain = 0
KME1 082115Z 00000KT 33/M10 A2974 RMK A01 T03271100  RH  006%=      5-min Rain = 0
KME1 082116Z 22000KT 33/M09 A2974 RMK A01 T03311093  RH  006%=      5-min Rain = 0
KME1 082117Z 27006KT 34/M09 A2974 RMK A01 T03351091  RH  006%=      5-min Rain = 0
KME1 082118Z 27007KT 34/M09 A2974 RMK A01 T03361086  RH  006%=      5-min Rain = 0
KME1 082119Z 24008KT 34/M09 A2974 RMK A01 T03371086  RH  006%=      5-min Rain = 0
KME1 082120Z 22004KT 34/M10 A2974 RMK A01 T03371099  RH  006%=      5-min Rain = 0
KME1 082121Z 19003KT 33/M10 A2974 RMK A01 T03341099  RH  006%=      5-min Rain = 0
KME1 082122Z 29003KT 33/M10 A2974 RMK A01 T03321097  RH  006%=      5-min Rain = 0
KME1 082123Z 28004KT 33/M09 A2974 RMK A01 T03321090  RH  006%=      5-min Rain = 0
KME1 082124Z 31003KT 33/M10 A2974 RMK A01 T03321101  RH  006%=      5-min Rain = 0
KME1 082125Z 32003KT 33/M09 A2974 RMK A01 T03321089  RH  006%=      5-min Rain = 0
KME1 082126Z 07001KT 33/M09 A2974 RMK A01 T03341085  RH  006%=      5-min Rain = 0
KME1 082127Z 33005KT 34/M10 A2974 RMK A01 T03361097  RH  006%=      5-min Rain = 0
KME1 082128Z 32010KT 33/M10 A2974 RMK A01 T03341095  RH  006%=      5-min Rain = 0
KME1 082129Z 33005KT 33/M10 A2974 RMK A01 T03311100  RH  006%=      5-min Rain = 0
KME1 082130Z 02003KT 33/M10 A2974 RMK A01 T03281101  RH  006%=      5-min Rain = 0
KME1 082131Z 03002KT 33/M11 A2974 RMK A01 T03281109  RH  005%=      5-min Rain = 0
KME1 082132Z 30006KT 33/M10 A2974 RMK A01 T03261100  RH  006%=      5-min Rain = 0
KME1 082133Z 32008KT 33/M10 A2974 RMK A01 T03271100  RH  006%=      5-min Rain = 0
KME1 082134Z 27006KT 33/M10 A2974 RMK A01 T03281096  RH  006%=      5-min Rain = 0
KME1 082135Z 26010KT 33/M10 A2974 RMK A01 T03301096  RH  006%=      5-min Rain = 0
KME1 082136Z 26007KT 33/M09 A2974 RMK A01 T03311094  RH  006%=      5-min Rain = 0
KME1 082137Z 26009KT 33/M09 A2974 RMK A01 T03341092  RH  006%=      5-min Rain = 0
KME1 082138Z 26008KT 33/M10 A2974 RMK A01 T03341101  RH  006%=      5-min Rain = 0
KME1 082139Z 28007G12KT 33/M10 A2974 RMK A01 T03331097  RH  006%=      5-min Rain = 0
KME1 082140Z 21003G10KT 33/M11 A2974 RMK A01 T03301108  RH  005%=      5-min Rain = 0
KME1 082141Z 31008KT 33/M10 A2973 RMK A01 T03291100  RH  006%=      5-min Rain = 0
KME1 082142Z 30009KT 33/M10 A2974 RMK A01 T03291098  RH  006%=      5-min Rain = 0
KME1 082143Z 29011KT 33/M10 A2974 RMK A01 T03301100  RH  006%=      5-min Rain = 0
KME1 082144Z 30008KT 33/M11 A2974 RMK A01 T03281105  RH  006%=      5-min Rain = 0
KME1 082145Z 30005KT 33/M10 A2974 RMK A01 T03271103  RH  006%=      5-min Rain = 0
KME1 082146Z 31004KT 33/M10 A2974 RMK A01 T03261104  RH  006%=      5-min Rain = 0
KME1 082147Z 30005KT 33/M10 A2973 RMK A01 T03271099  RH  006%=      5-min Rain = 0
KME1 082148Z 25003KT 33/M10 A2973 RMK A01 T03291095  RH  006%=      5-min Rain = 0
KME1 082149Z 21004KT 33/M10 A2973 RMK A01 T03311096  RH  006%=      5-min Rain = 0
KME1 082150Z 27005KT 33/M10 A2973 RMK A01 T03321096  RH  006%=      5-min Rain = 0
KME1 082151Z 27003KT 33/M11 A2974 RMK A01 T03311107  RH  005%=      5-min Rain = 0
KME1 082152Z 27002KT 33/M11 A2973 RMK A01 T03301106  RH  005%=      5-min Rain = 0
KME1 082153Z 34002KT 33/M10 A2973 RMK A01 T03301102  RH  006%=      5-min Rain = 0
KME1 082154Z 02002KT 33/M10 A2973 RMK A01 T03301103  RH  006%=      5-min Rain = 0
KME1 082155Z 30003KT 33/M10 A2973 RMK A01 T03301102  RH  006%=      5-min Rain = 0
KME1 082156Z 27006KT 33/M10 A2973 RMK A01 T03301104  RH  006%=      5-min Rain = 0
KME1 082157Z 27009KT 33/M10 A2973 RMK A01 T03301103  RH  006%=      5-min Rain = 0
KME1 082158Z 28006KT 33/M10 A2973 RMK A01 T03301101  RH  006%=      5-min Rain = 0
KME1 082159Z 32005KT 33/M10 A2973 RMK A01 T03301096  RH  006%=      5-min Rain = 0
KME1 082200Z 29007KT 33/M10 A2973 RMK A01 T03301102  RH  006%=      5-min Rain = 0
KME1 082201Z 28008KT 33/M09 A2973 RMK A01 T03301094  RH  006%=      5-min Rain = 0
KME1 082202Z 27014KT 33/M10 A2973 RMK A01 T03321099  RH  006%=      5-min Rain = 0
KME1 082203Z 29011KT 33/M11 A2973 RMK A01 T03301107  RH  005%=      5-min Rain = 0
KME1 082204Z 26012KT 33/M10 A2973 RMK A01 T03291101  RH  006%=      5-min Rain = 0
KME1 082205Z 24014KT 33/M10 A2973 RMK A01 T03291102  RH  006%=      5-min Rain = 0
KME1 082206Z 26009G14KT 33/M10 A2973 RMK A01 T03281101  RH  006%=      5-min Rain = 0
KME1 082207Z 25008KT 33/M10 A2973 RMK A01 T03271098  RH  006%=      5-min Rain = 0
KME1 082208Z 26010KT 33/M10 A2973 RMK A01 T03281103  RH  006%=      5-min Rain = 0
KME1 082209Z 26009KT 33/M11 A2973 RMK A01 T03261108  RH  005%=      5-min Rain = 0
KME1 082210Z 26008KT 32/M11 A2973 RMK A01 T03241106  RH  006%=      5-min Rain = 0
KME1 082211Z 26006KT 32/M11 A2973 RMK A01 T03231107  RH  006%=      5-min Rain = 0
KME1 082212Z 26004KT 32/M11 A2973 RMK A01 T03231105  RH  006%=      5-min Rain = 0
KME1 082213Z 28003KT 32/M11 A2973 RMK A01 T03221106  RH  006%=      5-min Rain = 0
KME1 082214Z 28002KT 32/M11 A2973 RMK A01 T03231108  RH  006%=      5-min Rain = 0
KME1 082215Z 25002KT 32/M11 A2973 RMK A01 T03231106  RH  006%=      5-min Rain = 0
KME1 082216Z 25008KT 32/M10 A2973 RMK A01 T03241103  RH  006%=      5-min Rain = 0
KME1 082217Z 25010KT 33/M11 A2973 RMK A01 T03251108  RH  005%=      5-min Rain = 0
KME1 082218Z 25009KT 33/M11 A2973 RMK A01 T03251105  RH  006%=      5-min Rain = 0
KME1 082219Z 23009KT 33/M11 A2972 RMK A01 T03261105  RH  006%=      5-min Rain = 0
KME1 082220Z 22013KT 33/M10 A2972 RMK A01 T03281100  RH  006%=      5-min Rain = 0
KME1 082221Z 23011KT 33/M10 A2972 RMK A01 T03311097  RH  006%=      5-min Rain = 0
KME1 082222Z 23008KT 33/M10 A2972 RMK A01 T03331096  RH  006%=      5-min Rain = 0
KME1 082223Z 23010KT 33/M10 A2972 RMK A01 T03341097  RH  006%=      5-min Rain = 0
KME1 082224Z 25009KT 33/M10 A2972 RMK A01 T03341100  RH  006%=      5-min Rain = 0
KME1 082225Z 26008KT 33/M11 A2972 RMK A01 T03321107  RH  005%=      5-min Rain = 0
KME1 082226Z 25006KT 33/M11 A2972 RMK A01 T03281106  RH  005%=      5-min Rain = 0
KME1 082227Z 25007KT 33/M11 A2972 RMK A01 T03261110  RH  005%=      5-min Rain = 0
KME1 082228Z 25006KT 33/M11 A2972 RMK A01 T03251109  RH  005%=      5-min Rain = 0
KME1 082229Z 27004KT 33/M11 A2972 RMK A01 T03251112  RH  005%=      5-min Rain = 0
KME1 082230Z 30006KT 32/M11 A2972 RMK A01 T03241113  RH  005%=      5-min Rain = 0
KME1 082231Z 29008KT 32/M11 A2972 RMK A01 T03221111  RH  005%=      5-min Rain = 0
KME1 082232Z 29006KT 32/M11 A2972 RMK A01 T03211107  RH  006%=      5-min Rain = 0
KME1 082233Z 31008KT 32/M11 A2972 RMK A01 T03201105  RH  006%=      5-min Rain = 0
KME1 082234Z 28006KT 32/M12 A2972 RMK A01 T03191115  RH  005%=      5-min Rain = 0
KME1 082235Z 27007KT 32/M11 A2972 RMK A01 T03191112  RH  006%=      5-min Rain = 0
KME1 082236Z 28012KT 32/M11 A2972 RMK A01 T03191107  RH  006%=      5-min Rain = 0
KME1 082237Z 28010KT 32/M11 A2972 RMK A01 T03191112  RH  006%=      5-min Rain = 0
KME1 082238Z 28009KT 32/M11 A2972 RMK A01 T03191109  RH  006%=      5-min Rain = 0
KME1 082239Z 24006KT 32/M10 A2972 RMK A01 T03201103  RH  006%=      5-min Rain = 0
KME1 082240Z 25008KT 32/M10 A2972 RMK A01 T03211099  RH  006%=      5-min Rain = 0
KME1 082241Z 24010KT 32/M10 A2972 RMK A01 T03231103  RH  006%=      5-min Rain = 0
KME1 082242Z 25011KT 32/M11 A2972 RMK A01 T03241105  RH  006%=      5-min Rain = 0
KME1 082243Z 26010KT 33/M11 A2972 RMK A01 T03251106  RH  006%=      5-min Rain = 0
KME1 082244Z 26006KT 33/M11 A2972 RMK A01 T03251109  RH  005%=      5-min Rain = 0
KME1 082245Z 25005KT 32/M10 A2972 RMK A01 T03241099  RH  006%=      5-min Rain = 0
KME1 082246Z 25006KT 33/M10 A2972 RMK A01 T03251099  RH  006%=      5-min Rain = 0
KME1 082247Z 24005KT 33/M10 A2972 RMK A01 T03281097  RH  006%=      5-min Rain = 0
KME1 082248Z 26008KT 33/M09 A2972 RMK A01 T03321094  RH  006%=      5-min Rain = 0
KME1 082249Z 24006KT 33/M10 A2972 RMK A01 T03321101  RH  006%=      5-min Rain = 0
KME1 082250Z 24007KT 33/M10 A2972 RMK A01 T03321095  RH  006%=      5-min Rain = 0
KME1 082251Z 26008KT 33/M11 A2971 RMK A01 T03331105  RH  005%=      5-min Rain = 0
KME1 082252Z 26010G15KT 33/M10 A2971 RMK A01 T03341101  RH  006%=      5-min Rain = 0
KME1 082253Z 25010KT 33/M11 A2971 RMK A01 T03331107  RH  005%=      5-min Rain = 0
KME1 082254Z 26008KT 33/M10 A2971 RMK A01 T03321100  RH  006%=      5-min Rain = 0
KME1 082255Z 23010KT 33/M10 A2971 RMK A01 T03331099  RH  006%=      5-min Rain = 0
KME1 082256Z 23011KT 33/M11 A2971 RMK A01 T03341105  RH  005%=      5-min Rain = 0
KME1 082257Z 23012KT 33/M11 A2971 RMK A01 T03321106  RH  005%=      5-min Rain = 0
KME1 082258Z 23012KT 33/M10 A2971 RMK A01 T03311103  RH  006%=      5-min Rain = 0
KME1 082259Z 24011KT 33/M10 A2971 RMK A01 T03311102  RH  006%=      5-min Rain = 0
KME1 082300Z 24012KT 33/M10 A2971 RMK A01 T03311103  RH  006%=      5-min Rain = 0
KME1 082301Z 23009KT 33/M11 A2971 RMK A01 T03301109  RH  005%=      5-min Rain = 0
KME1 082302Z 24010KT 33/M11 A2971 RMK A01 T03281105  RH  006%=      5-min Rain = 0
KME1 082303Z 25010KT 33/M10 A2971 RMK A01 T03281103  RH  006%=      5-min Rain = 0
KME1 082304Z 26009KT 33/M11 A2971 RMK A01 T03261108  RH  005%=      5-min Rain = 0
KME1 082305Z 27007KT 32/M11 A2971 RMK A01 T03241111  RH  005%=      5-min Rain = 0
KME1 082306Z 28008KT 32/M11 A2971 RMK A01 T03231107  RH  006%=      5-min Rain = 0
KME1 082307Z 30006KT 32/M11 A2971 RMK A01 T03231105  RH  006%=      5-min Rain = 0
KME1 082308Z 28008KT 33/M10 A2971 RMK A01 T03251103  RH  006%=      5-min Rain = 0
KME1 082309Z 29007KT 33/M11 A2971 RMK A01 T03251105  RH  006%=      5-min Rain = 0
KME1 082310Z 28007KT 33/M11 A2971 RMK A01 T03251108  RH  006%=      5-min Rain = 0
KME1 082311Z 26006KT 32/M11 A2971 RMK A01 T03231110  RH  005%=      5-min Rain = 0
KME1 082312Z 26006KT 32/M11 A2971 RMK A01 T03221107  RH  006%=      5-min Rain = 0
KME1 082313Z 25006KT 32/M11 A2971 RMK A01 T03211108  RH  006%=      5-min Rain = 0
KME1 082314Z 27007KT 32/M11 A2971 RMK A01 T03211112  RH  005%=      5-min Rain = 0
KME1 082315Z 27006KT 32/M11 A2971 RMK A01 T03211110  RH  006%=      5-min Rain = 0
KME1 082316Z 27004KT 32/M10 A2971 RMK A01 T03231103  RH  006%=      5-min Rain = 0
KME1 082317Z 27003KT 33/M11 A2971 RMK A01 T03251106  RH  006%=      5-min Rain = 0
KME1 082318Z 26004KT 33/M11 A2971 RMK A01 T03261107  RH  006%=      5-min Rain = 0
KME1 082319Z 24003KT 33/M11 A2971 RMK A01 T03261114  RH  005%=      5-min Rain = 0
KME1 082320Z 23002KT 33/M12 A2971 RMK A01 T03261117  RH  005%=      5-min Rain = 0
KME1 082321Z 28001KT 33/M11 A2971 RMK A01 T03261114  RH  005%=      5-min Rain = 0
KME1 082322Z 25001KT 33/M11 A2971 RMK A01 T03271114  RH  005%=      5-min Rain = 0
KME1 082323Z 28002KT 33/M11 A2971 RMK A01 T03281106  RH  006%=      5-min Rain = 0
KME1 082324Z 28003KT 33/M11 A2971 RMK A01 T03281108  RH  005%=      5-min Rain = 0
KME1 082325Z 30004KT 33/M11 A2971 RMK A01 T03261113  RH  005%=      5-min Rain = 0
KME1 082326Z 29004KT 33/M11 A2971 RMK A01 T03251105  RH  006%=      5-min Rain = 0
KME1 082327Z 25005KT 32/M10 A2971 RMK A01 T03231102  RH  006%=      5-min Rain = 0
KME1 082328Z 25007KT 32/M10 A2971 RMK A01 T03221104  RH  006%=      5-min Rain = 0
KME1 082329Z 26007KT 32/M11 A2971 RMK A01 T03211105  RH  006%=      5-min Rain = 0
KME1 082330Z 30007KT 32/M11 A2971 RMK A01 T03201107  RH  006%=      5-min Rain = 0
KME1 082331Z 30006KT 32/M11 A2971 RMK A01 T03181107  RH  006%=      5-min Rain = 0
KME1 082332Z 28005KT 32/M10 A2971 RMK A01 T03161104  RH  006%=      5-min Rain = 0
KME1 082333Z 28006KT 32/M11 A2971 RMK A01 T03151108  RH  006%=      5-min Rain = 0
KME1 082334Z 28008KT 32/M11 A2971 RMK A01 T03151108  RH  006%=      5-min Rain = 0
KME1 082335Z 29007KT 31/M11 A2971 RMK A01 T03141108  RH  006%=      5-min Rain = 0
KME1 082336Z 29005KT 31/M11 A2971 RMK A01 T03141106  RH  006%=      5-min Rain = 0
KME1 082337Z 27005KT 32/M10 A2971 RMK A01 T03151101  RH  006%=      5-min Rain = 0
KME1 082338Z 28005KT 32/M10 A2971 RMK A01 T03181100  RH  006%=      5-min Rain = 0
KME1 082339Z 27006KT 32/M10 A2971 RMK A01 T03211099  RH  006%=      5-min Rain = 0
KME1 082340Z 27006KT 32/M10 A2971 RMK A01 T03231102  RH  006%=      5-min Rain = 0
KME1 082341Z 27005KT 32/M11 A2971 RMK A01 T03241106  RH  006%=      5-min Rain = 0
KME1 082342Z 25004KT 33/M10 A2971 RMK A01 T03251097  RH  006%=      5-min Rain = 0
KME1 082343Z 25006KT 33/M09 A2971 RMK A01 T03261094  RH  006%=      5-min Rain = 0
KME1 082344Z 24003KT 33/M10 A2971 RMK A01 T03281095  RH  006%=      5-min Rain = 0
KME1 082345Z 24004KT 33/M09 A2971 RMK A01 T03301090  RH  006%=      5-min Rain = 0
KME1 082346Z 24008KT 33/M09 A2971 RMK A01 T03311094  RH  006%=      5-min Rain = 0
KME1 082347Z 23007KT 33/M10 A2971 RMK A01 T03301100  RH  006%=      5-min Rain = 0
KME1 082348Z 23008KT 33/M10 A2971 RMK A01 T03281104  RH  006%=      5-min Rain = 0
KME1 082349Z 26007KT 33/M11 A2971 RMK A01 T03251106  RH  006%=      5-min Rain = 0
KME1 082350Z 25007KT 32/M11 A2971 RMK A01 T03241105  RH  006%=      5-min Rain = 0
KME1 082351Z 23008KT 32/M10 A2971 RMK A01 T03231103  RH  006%=      5-min Rain = 0
KME1 082352Z 22007KT 32/M11 A2971 RMK A01 T03241108  RH  006%=      5-min Rain = 0
KME1 082353Z 23006KT 32/M10 A2971 RMK A01 T03231104  RH  006%=      5-min Rain = 0
KME1 082354Z 24006KT 32/M11 A2971 RMK A01 T03221107  RH  006%=      5-min Rain = 0
KME1 082355Z 23005KT 32/M11 A2971 RMK A01 T03221111  RH  005%=      5-min Rain = 0
KME1 082356Z 23005KT 32/M11 A2971 RMK A01 T03221108  RH  006%=      5-min Rain = 0
KME1 082357Z 23006KT 32/M11 A2971 RMK A01 T03221106  RH  006%=      5-min Rain = 0
KME1 082358Z 22006KT 32/M11 A2971 RMK A01 T03221108  RH  006%=      5-min Rain = 0
KME1 082359Z 22006KT 32/M10 A2971 RMK A01 T03211104  RH  006%=      5-min Rain = 0
KME1 090000Z 22006KT 32/M10 A2971 RMK A01 T03201098  RH  006%=      5-min Rain = 0
KME1 090001Z 22008KT 32/M11 A2971 RMK A01 T03201106  RH  006%=      5-min Rain = 0
KME1 090002Z 23006KT 32/M11 A2971 RMK A01 T03201106  RH  006%=      5-min Rain = 0
KME1 090003Z 23006KT 32/M10 A2971 RMK A01 T03201102  RH  006%=      5-min Rain = 0
KME1 090004Z 26005KT 32/M10 A2971 RMK A01 T03201103  RH  006%=      5-min Rain = 0
KME1 090005Z 26006KT 32/M10 A2971 RMK A01 T03201102  RH  006%=      5-min Rain = 0
KME1 090006Z 26005KT 32/M11 A2971 RMK A01 T03201107  RH  006%=      5-min Rain = 0
KME1 090007Z 26006KT 32/M11 A2971 RMK A01 T03201105  RH  006%=      5-min Rain = 0
KME1 090008Z 25004KT 32/M10 A2971 RMK A01 T03201101  RH  006%=      5-min Rain = 0
KME1 090009Z 26005KT 32/M10 A2971 RMK A01 T03191096  RH  006%=      5-min Rain = 0
KME1 090010Z 25005KT 32/M10 A2971 RMK A01 T03181099  RH  006%=      5-min Rain = 0
KME1 090011Z 25005KT 32/M10 A2971 RMK A01 T03161095  RH  006%=      5-min Rain = 0
KME1 090012Z 26006KT 32/M10 A2971 RMK A01 T03151100  RH  006%=      5-min Rain = 0
KME1 090013Z 26010KT 32/M11 A2971 RMK A01 T03151105  RH  006%=      5-min Rain = 0
KME1 090014Z 26008KT 31/M11 A2971 RMK A01 T03141108  RH  006%=      5-min Rain = 0
KME1 090015Z 25006KT 31/M11 A2971 RMK A01 T03131106  RH  006%=      5-min Rain = 0
KME1 090016Z 25007KT 31/M11 A2971 RMK A01 T03121105  RH  006%=      5-min Rain = 0
KME1 090017Z 25007KT 31/M10 A2971 RMK A01 T03111104  RH  006%=      5-min Rain = 0
KME1 090018Z 25007KT 31/M11 A2971 RMK A01 T03101105  RH  006%=      5-min Rain = 0
KME1 090019Z 25006KT 31/M11 A2971 RMK A01 T03091105  RH  006%=      5-min Rain = 0
KME1 090020Z 25005KT 31/M10 A2971 RMK A01 T03081104  RH  006%=      5-min Rain = 0
KME1 090021Z 25004KT 31/M10 A2971 RMK A01 T03071100  RH  006%=      5-min Rain = 0
KME1 090022Z 25005KT 31/M10 A2971 RMK A01 T03061099  RH  007%=      5-min Rain = 0
KME1 090023Z 25005KT 31/M10 A2971 RMK A01 T03051102  RH  006%=      5-min Rain = 0
KME1 090024Z 25005KT 31/M10 A2971 RMK A01 T03051103  RH  006%=      5-min Rain = 0
KME1 090025Z 25006KT 31/M10 A2971 RMK A01 T03051103  RH  006%=      5-min Rain = 0
KME1 090026Z 24005KT 31/M10 A2971 RMK A01 T03061104  RH  006%=      5-min Rain = 0
KME1 090027Z 24005KT 31/M10 A2971 RMK A01 T03061101  RH  007%=      5-min Rain = 0
KME1 090028Z 24005KT 31/M10 A2971 RMK A01 T03061099  RH  007%=      5-min Rain = 0
KME1 090029Z 24004KT 31/M10 A2971 RMK A01 T03051100  RH  007%=      5-min Rain = 0
KME1 090030Z 24005KT 31/M10 A2971 RMK A01 T03051098  RH  007%=      5-min Rain = 0
KME1 090031Z 24005KT 31/M10 A2971 RMK A01 T03051099  RH  007%=      5-min Rain = 0
KME1 090032Z 23005KT 30/M10 A2971 RMK A01 T03041099  RH  007%=      5-min Rain = 0
KME1 090033Z 23005KT 31/M10 A2971 RMK A01 T03051098  RH  007%=      5-min Rain = 0
KME1 090034Z 22004KT 30/M10 A2971 RMK A01 T03041098  RH  007%=      5-min Rain = 0
KME1 090035Z 22003KT 30/M10 A2971 RMK A01 T03041098  RH  007%=      5-min Rain = 0
KME1 090036Z 23003KT 30/M10 A2971 RMK A01 T03031095  RH  007%=      5-min Rain = 0
KME1 090037Z 23004KT 30/M09 A2971 RMK A01 T03021093  RH  007%=      5-min Rain = 0
KME1 090038Z 23003KT 30/M09 A2971 RMK A01 T03021094  RH  007%=      5-min Rain = 0
KME1 090039Z 23003KT 30/M09 A2971 RMK A01 T03011093  RH  007%=      5-min Rain = 0
KME1 090040Z 23003KT 30/M09 A2971 RMK A01 T03001093  RH  007%=      5-min Rain = 0
KME1 090041Z 24003KT 30/M09 A2971 RMK A01 T02981091  RH  007%=      5-min Rain = 0
KME1 090042Z 24004KT 30/M09 A2971 RMK A01 T02971091  RH  007%=      5-min Rain = 0
KME1 090043Z 24004KT 30/M09 A2971 RMK A01 T02951091  RH  007%=      5-min Rain = 0
KME1 090044Z 25004KT 29/M09 A2971 RMK A01 T02931091  RH  008%=      5-min Rain = 0
KME1 090045Z 24004KT 29/M09 A2971 RMK A01 T02921091  RH  008%=      5-min Rain = 0
KME1 090046Z 24004KT 29/M09 A297 RMK A01 T02911090  RH  008%=      5-min Rain = 0
KME1 090047Z 24004KT 29/M09 A297 RMK A01 T02901091  RH  008%=      5-min Rain = 0
KME1 090048Z 25003KT 29/M09 A297 RMK A01 T02891090  RH  008%=      5-min Rain = 0
KME1 090049Z 25003KT 29/M09 A297 RMK A01 T02881088  RH  008%=      5-min Rain = 0
KME1 090050Z 25004KT 29/M09 A297 RMK A01 T02861089  RH  008%=      5-min Rain = 0
KME1 090051Z 25004KT 29/M09 A297 RMK A01 T02851090  RH  008%=      5-min Rain = 0
KME1 090052Z 25004KT 28/M09 A297 RMK A01 T02841091  RH  008%=      5-min Rain = 0
KME1 090053Z 25004KT 28/M09 A297 RMK A01 T02841092  RH  008%=      5-min Rain = 0
KME1 090054Z 25004KT 28/M09 A297 RMK A01 T02831092  RH  008%=      5-min Rain = 0
KME1 090055Z 25004KT 28/M09 A297 RMK A01 T02821092  RH  008%=      5-min Rain = 0
KME1 090056Z 24004KT 28/M09 A297 RMK A01 T02821093  RH  008%=      5-min Rain = 0
KME1 090057Z 24004KT 28/M09 A297 RMK A01 T02811092  RH  008%=      5-min Rain = 0
KME1 090058Z 24004KT 28/M09 A297 RMK A01 T02791090  RH  008%=      5-min Rain = 0
KME1 090059Z 25004KT 28/M09 A297 RMK A01 T02771090  RH  008%=      5-min Rain = 0
KME1 090100Z 25004KT 28/M09 A297 RMK A01 T02751086  RH  009%=      5-min Rain = 0
KME1 090101Z 26004KT 27/M09 A297 RMK A01 T02731088  RH  009%=      5-min Rain = 0
KME1 090102Z 25004KT 27/M09 A297 RMK A01 T02711091  RH  009%=      5-min Rain = 0
KME1 090103Z 25004KT 27/M09 A297 RMK A01 T02711092  RH  009%=      5-min Rain = 0
KME1 090104Z 25004KT 27/M09 A297 RMK A01 T02711093  RH  008%=      5-min Rain = 0
KME1 090105Z 25004KT 27/M09 A297 RMK A01 T02711093  RH  008%=      5-min Rain = 0
KME1 090106Z 25004KT 27/M09 A297 RMK A01 T02701090  RH  009%=      5-min Rain = 0
KME1 090107Z 25005KT 27/M09 A297 RMK A01 T02681089  RH  009%=      5-min Rain = 0
KME1 090108Z 24005KT 27/M08 A297 RMK A01 T02651084  RH  009%=      5-min Rain = 0
KME1 090109Z 24005KT 26/M08 A297 RMK A01 T02621082  RH  010%=      5-min Rain = 0
KME1 090110Z 25005KT 26/M08 A297 RMK A01 T02591078  RH  010%=      5-min Rain = 0
KME1 090111Z 25005KT 26/M08 A297 RMK A01 T02561079  RH  010%=      5-min Rain = 0
KME1 090112Z 25005KT 25/M09 A297 RMK A01 T02541086  RH  010%=      5-min Rain = 0
KME1 090113Z 25005KT 26/M09 A297 RMK A01 T02551090  RH  009%=      5-min Rain = 0
KME1 090114Z 25005KT 26/M09 A297 RMK A01 T02571092  RH  009%=      5-min Rain = 0
KME1 090115Z 25005KT 26/M09 A297 RMK A01 T02581091  RH  009%=      5-min Rain = 0
KME1 090116Z 25005KT 26/M09 A297 RMK A01 T02581091  RH  009%=      5-min Rain = 0
KME1 090117Z 25005KT 26/M09 A297 RMK A01 T02581092  RH  009%=      5-min Rain = 0
KME1 090118Z 25005KT 26/M09 A297 RMK A01 T02581092  RH  009%=      5-min Rain = 0
KME1 090119Z 25005KT 26/M10 A297 RMK A01 T02581095  RH  009%=      5-min Rain = 0
KME1 090120Z 25004KT 26/M10 A297 RMK A01 T02581095  RH  009%=      5-min Rain = 0
KME1 090121Z 25004KT 26/M09 A297 RMK A01 T02571094  RH  009%=      5-min Rain = 0
KME1 090122Z 25004KT 26/M09 A297 RMK A01 T02571094  RH  009%=      5-min Rain = 0
KME1 090123Z 25004KT 26/M10 A297 RMK A01 T02551095  RH  009%=      5-min Rain = 0
KME1 090124Z 26004KT 25/M08 A297 RMK A01 T02541084  RH  010%=      5-min Rain = 0
KME1 090125Z 27003KT 25/M06 A297 RMK A01 T02461060  RH  013%=      5-min Rain = 0
KME1 090126Z 25001KT 23/M06 A297 RMK A01 T02341061  RH  014%=      5-min Rain = 0
KME1 090127Z 27000KT 23/M07 A297 RMK A01 T02251070  RH  013%=      5-min Rain = 0
KME1 090128Z 28000KT 22/M07 A297 RMK A01 T02211072  RH  013%=      5-min Rain = 0
KME1 090129Z 09001KT 22/M07 A297 RMK A01 T02201068  RH  014%=      5-min Rain = 0
KME1 090130Z 16000KT 22/M07 A297 RMK A01 T02181073  RH  013%=      5-min Rain = 0
KME1 090131Z 10001KT 22/M07 A297 RMK A01 T02191072  RH  013%=      5-min Rain = 0
KME1 090132Z 10001KT 22/M07 A297 RMK A01 T02191070  RH  014%=      5-min Rain = 0
KME1 090133Z 10002KT 22/M07 A297 RMK A01 T02181073  RH  014%=      5-min Rain = 0
KME1 090134Z 09002KT 22/M07 A297 RMK A01 T02171071  RH  014%=      5-min Rain = 0
KME1 090135Z 10001KT 22/M07 A297 RMK A01 T02171069  RH  014%=      5-min Rain = 0
KME1 090136Z 12001KT 22/M07 A297 RMK A01 T02161067  RH  014%=      5-min Rain = 0
KME1 090137Z 09001KT 22/M07 A297 RMK A01 T02151065  RH  015%=      5-min Rain = 0
KME1 090138Z 11001KT 21/M06 A297 RMK A01 T02131064  RH  015%=      5-min Rain = 0
KME1 090139Z 10001KT 21/M06 A297 RMK A01 T02121061  RH  015%=      5-min Rain = 0
KME1 090140Z 09001KT 21/M06 A297 RMK A01 T02101059  RH  016%=      5-min Rain = 0
KME1 090141Z 09002KT 21/M06 A297 RMK A01 T02101059  RH  016%=      5-min Rain = 0
KME1 090142Z 10001KT 21/M06 A297 RMK A01 T02091060  RH  016%=      5-min Rain = 0
KME1 090143Z 11001KT 21/M06 A297 RMK A01 T02081061  RH  016%=      5-min Rain = 0
KME1 090144Z 13001KT 21/M06 A297 RMK A01 T02071061  RH  016%=      5-min Rain = 0
KME1 090145Z 16001KT 20/M06 A297 RMK A01 T02041059  RH  016%=      5-min Rain = 0
KME1 090146Z 18000KT 20/M06 A297 RMK A01 T02011057  RH  017%=      5-min Rain = 0
KME1 090147Z 19001KT 20/M06 A297 RMK A01 T01991063  RH  016%=      5-min Rain = 0
KME1 090148Z 19001KT 20/M07 A297 RMK A01 T02021069  RH  015%=      5-min Rain = 0
KME1 090149Z 19001KT 21/M07 A297 RMK A01 T02051068  RH  015%=      5-min Rain = 0
KME1 090150Z 20001KT 21/M07 A297 RMK A01 T02071066  RH  015%=      5-min Rain = 0
KME1 090151Z 20002KT 21/M06 A297 RMK A01 T02081064  RH  015%=      5-min Rain = 0
KME1 090152Z 20001KT 21/M07 A297 RMK A01 T02081068  RH  015%=      5-min Rain = 0
KME1 090153Z 21001KT 21/M07 A297 RMK A01 T02091069  RH  015%=      5-min Rain = 0
KME1 090154Z 21000KT 21/M07 A297 RMK A01 T02111074  RH  014%=      5-min Rain = 0
KME1 090155Z 00000KT 22/M08 A297 RMK A01 T02151076  RH  014%=      5-min Rain = 0
KME1 090156Z 00000KT 22/M08 A297 RMK A01 T02181076  RH  013%=      5-min Rain = 0
KME1 090157Z 00000KT 22/M08 A297 RMK A01 T02191076  RH  013%=      5-min Rain = 0
KME1 090158Z 00000KT 22/M07 A297 RMK A01 T02191072  RH  014%=      5-min Rain = 0
KME1 090159Z 00000KT 22/M07 A297 RMK A01 T02161073  RH  014%=      5-min Rain = 0
KME1 090200Z 00000KT 21/M08 A297 RMK A01 T02141077  RH  013%=      5-min Rain = 0
KME1 090201Z 00000KT 22/M08 A297 RMK A01 T02161081  RH  013%=      5-min Rain = 0
KME1 090202Z 00000KT 22/M08 A297 RMK A01 T02201084  RH  012%=      5-min Rain = 0
KME1 090203Z 00000KT 22/M09 A297 RMK A01 T02241086  RH  012%=      5-min Rain = 0
KME1 090204Z 18001KT 23/M09 A297 RMK A01 T02271087  RH  012%=      5-min Rain = 0
KME1 090205Z 18001KT 23/M07 A297 RMK A01 T02261067  RH  014%=      5-min Rain = 0
KME1 090206Z 18001KT 21/M05 A297 RMK A01 T02131054  RH  016%=      5-min Rain = 0
KME1 090207Z 20000KT 20/M05 A297 RMK A01 T02001054  RH  017%=      5-min Rain = 0
KME1 090208Z 00000KT 19/M05 A297 RMK A01 T01941052  RH  019%=      5-min Rain = 0
KME1 090209Z 00000KT 19/M05 A297 RMK A01 T01891053  RH  019%=      5-min Rain = 0
KME1 090210Z 00000KT 19/M07 A297 RMK A01 T01851066  RH  018%=      5-min Rain = 0
KME1 090211Z 00000KT 18/M07 A297 RMK A01 T01841072  RH  017%=      5-min Rain = 0
KME1 090212Z 20000KT 18/M06 A297 RMK A01 T01831064  RH  018%=      5-min Rain = 0
KME1 090213Z 20001KT 18/M05 A297 RMK A01 T01811049  RH  021%=      5-min Rain = 0
KME1 090214Z 20002KT 18/M05 A297 RMK A01 T01781048  RH  021%=      5-min Rain = 0
KME1 090215Z 20002KT 18/M05 A297 RMK A01 T01751048  RH  021%=      5-min Rain = 0
KME1 090216Z 20002KT 17/M05 A297 RMK A01 T01721051  RH  021%=      5-min Rain = 0
KME1 090217Z 20003KT 17/M05 A2971 RMK A01 T01691051  RH  022%=      5-min Rain = 0
KME1 090218Z 19006KT 17/M05 A2971 RMK A01 T01651050  RH  023%=      5-min Rain = 0
KME1 090219Z 20006KT 16/M05 A2971 RMK A01 T01591051  RH  023%=      5-min Rain = 0
KME1 090220Z 20006KT 16/M06 A2971 RMK A01 T01551055  RH  023%=      5-min Rain = 0
KME1 090221Z 19006KT 15/M06 A2971 RMK A01 T01531055  RH  023%=      5-min Rain = 0
KME1 090222Z 20006KT 15/M06 A2971 RMK A01 T01541057  RH  023%=      5-min Rain = 0
KME1 090223Z 20006KT 16/M06 A2971 RMK A01 T01571059  RH  022%=      5-min Rain = 0
KME1 090224Z 20005KT 16/M06 A2971 RMK A01 T01611059  RH  022%=      5-min Rain = 0
KME1 090225Z 21004KT 16/M06 A2971 RMK A01 T01641059  RH  021%=      5-min Rain = 0
KME1 090226Z 22004KT 17/M06 A2971 RMK A01 T01651061  RH  021%=      5-min Rain = 0
KME1 090227Z 23004KT 17/M06 A2971 RMK A01 T01671061  RH  020%=      5-min Rain = 0
KME1 090228Z 23005KT 17/M06 A2971 RMK A01 T01691062  RH  020%=      5-min Rain = 0
KME1 090229Z 23005KT 17/M06 A2971 RMK A01 T01711063  RH  020%=      5-min Rain = 0
KME1 090230Z 23005KT 17/M06 A2971 RMK A01 T01731063  RH  019%=      5-min Rain = 0
KME1 090231Z 23004KT 17/M06 A2971 RMK A01 T01731062  RH  020%=      5-min Rain = 0
KME1 090232Z 23004KT 17/M07 A2971 RMK A01 T01731065  RH  019%=      5-min Rain = 0
KME1 090233Z 24004KT 17/M07 A2971 RMK A01 T01741066  RH  019%=      5-min Rain = 0
KME1 090234Z 25002KT 17/M06 A2971 RMK A01 T01741059  RH  020%=      5-min Rain = 0
KME1 090235Z 24000KT 17/M06 A2971 RMK A01 T01711061  RH  020%=      5-min Rain = 0
KME1 090236Z 24001KT 17/M06 A2971 RMK A01 T01691058  RH  021%=      5-min Rain = 0
KME1 090237Z 20001KT 17/M06 A2971 RMK A01 T01671055  RH  022%=      5-min Rain = 0
KME1 090238Z 19001KT 16/M06 A2971 RMK A01 T01631057  RH  022%=      5-min Rain = 0
KME1 090239Z 19002KT 16/M06 A2972 RMK A01 T01611060  RH  021%=      5-min Rain = 0
KME1 090240Z 20003KT 16/M06 A2972 RMK A01 T01611062  RH  021%=      5-min Rain = 0
KME1 090241Z 21003KT 16/M06 A2972 RMK A01 T01611061  RH  021%=      5-min Rain = 0
KME1 090242Z 21003KT 16/M06 A2972 RMK A01 T01611059  RH  022%=      5-min Rain = 0
KME1 090243Z 21003KT 16/M06 A2972 RMK A01 T01601059  RH  022%=      5-min Rain = 0
KME1 090244Z 20003KT 16/M06 A2972 RMK A01 T01591064  RH  021%=      5-min Rain = 0
KME1 090245Z 20002KT 16/M07 A2972 RMK A01 T01601065  RH  021%=      5-min Rain = 0
KME1 090246Z 20002KT 16/M06 A2972 RMK A01 T01601063  RH  021%=      5-min Rain = 0
KME1 090247Z 21002KT 16/M06 A2972 RMK A01 T01601057  RH  022%=      5-min Rain = 0
KME1 090248Z 21002KT 16/M05 A2972 RMK A01 T01591054  RH  023%=      5-min Rain = 0
KME1 090249Z 20002KT 16/M05 A2972 RMK A01 T01581054  RH  023%=      5-min Rain = 0
KME1 090250Z 19002KT 16/M06 A2972 RMK A01 T01571057  RH  022%=      5-min Rain = 0
KME1 090251Z 18003KT 16/M06 A2972 RMK A01 T01571055  RH  023%=      5-min Rain = 0
KME1 090252Z 18003KT 16/M05 A2972 RMK A01 T01561048  RH  024%=      5-min Rain = 0
KME1 090253Z 20004KT 15/M05 A2972 RMK A01 T01541046  RH  025%=      5-min Rain = 0
KME1 090254Z 21004KT 15/M05 A2973 RMK A01 T01511049  RH  025%=      5-min Rain = 0
KME1 090255Z 21004KT 15/M06 A2973 RMK A01 T01501057  RH  023%=      5-min Rain = 0
KME1 090256Z 21004KT 15/M06 A2973 RMK A01 T01491058  RH  023%=      5-min Rain = 0
KME1 090257Z 21004KT 15/M06 A2973 RMK A01 T01521056  RH  023%=      5-min Rain = 0
KME1 090258Z 20005KT 16/M06 A2973 RMK A01 T01551055  RH  023%=      5-min Rain = 0
KME1 090259Z 20005KT 16/M06 A2973 RMK A01 T01581055  RH  023%=      5-min Rain = 0
KME1 090300Z 21004KT 16/M05 A2973 RMK A01 T01601054  RH  022%=      5-min Rain = 0
KME1 090301Z 21004KT 16/M05 A2973 RMK A01 T01611053  RH  023%=      5-min Rain = 0
KME1 090302Z 21004KT 16/M05 A2973 RMK A01 T01611052  RH  023%=      5-min Rain = 0
KME1 090303Z 21004KT 16/M05 A2973 RMK A01 T01621051  RH  023%=      5-min Rain = 0
KME1 090304Z 21004KT 16/M05 A2973 RMK A01 T01631051  RH  023%=      5-min Rain = 0
KME1 090305Z 21004KT 16/M05 A2973 RMK A01 T01641050  RH  023%=      5-min Rain = 0
KME1 090306Z 21004KT 17/M05 A2973 RMK A01 T01651051  RH  022%=      5-min Rain = 0
KME1 090307Z 21003KT 17/M05 A2973 RMK A01 T01661051  RH  022%=      5-min Rain = 0
KME1 090308Z 20003KT 17/M05 A2973 RMK A01 T01661050  RH  022%=      5-min Rain = 0
KME1 090309Z 20003KT 17/M05 A2973 RMK A01 T01671050  RH  022%=      5-min Rain = 0
KME1 090310Z 19004KT 17/M05 A2973 RMK A01 T01671049  RH  022%=      5-min Rain = 0
KME1 090311Z 19005KT 17/M05 A2973 RMK A01 T01661049  RH  023%=      5-min Rain = 0
KME1 090312Z 19005KT 17/M05 A2973 RMK A01 T01651049  RH  023%=      5-min Rain = 0
KME1 090313Z 19005KT 16/M05 A2973 RMK A01 T01641046  RH  023%=      5-min Rain = 0
KME1 090314Z 20005KT 16/M05 A2973 RMK A01 T01631045  RH  024%=      5-min Rain = 0
KME1 090315Z 21005KT 16/M05 A2973 RMK A01 T01621046  RH  024%=      5-min Rain = 0
KME1 090316Z 21005KT 16/M05 A2973 RMK A01 T01611046  RH  024%=      5-min Rain = 0
KME1 090317Z 20004KT 16/M05 A2973 RMK A01 T01601046  RH  024%=      5-min Rain = 0
KME1 090318Z 20004KT 16/M05 A2973 RMK A01 T01591046  RH  024%=      5-min Rain = 0
KME1 090319Z 20004KT 16/M05 A2973 RMK A01 T01581046  RH  024%=      5-min Rain = 0
KME1 090320Z 20004KT 16/M05 A2973 RMK A01 T01571046  RH  024%=      5-min Rain = 0
KME1 090321Z 21004KT 16/M05 A2973 RMK A01 T01571045  RH  025%=      5-min Rain = 0
KME1 090322Z 21004KT 16/M05 A2973 RMK A01 T01551045  RH  025%=      5-min Rain = 0
KME1 090323Z 21004KT 16/M04 A2973 RMK A01 T01551043  RH  025%=      5-min Rain = 0
KME1 090324Z 21004KT 16/M04 A2973 RMK A01 T01551043  RH  025%=      5-min Rain = 0
KME1 090325Z 21004KT 16/M04 A2972 RMK A01 T01551043  RH  025%=      5-min Rain = 0
KME1 090326Z 21004KT 16/M04 A2972 RMK A01 T01551043  RH  025%=      5-min Rain = 0
KME1 090327Z 22004KT 16/M04 A2972 RMK A01 T01561044  RH  025%=      5-min Rain = 0
KME1 090328Z 22004KT 16/M04 A2972 RMK A01 T01561044  RH  025%=      5-min Rain = 0
KME1 090329Z 22003KT 16/M05 A2972 RMK A01 T01561045  RH  025%=      5-min Rain = 0
KME1 090330Z 22003KT 16/M05 A2972 RMK A01 T01561047  RH  024%=      5-min Rain = 0
KME1 090331Z 21003KT 16/M05 A2972 RMK A01 T01561049  RH  024%=      5-min Rain = 0
KME1 090332Z 21003KT 16/M05 A2972 RMK A01 T01571050  RH  024%=      5-min Rain = 0
KME1 090333Z 21003KT 16/M05 A2972 RMK A01 T01591051  RH  023%=      5-min Rain = 0
KME1 090334Z 19004KT 16/M05 A2972 RMK A01 T01611051  RH  023%=      5-min Rain = 0
KME1 090335Z 19004KT 16/M05 A2972 RMK A01 T01621050  RH  023%=      5-min Rain = 0
KME1 090336Z 20004KT 16/M05 A2972 RMK A01 T01641049  RH  023%=      5-min Rain = 0
KME1 090337Z 19005KT 16/M05 A2972 RMK A01 T01641047  RH  023%=      5-min Rain = 0
KME1 090338Z 20006KT 16/M05 A2972 RMK A01 T01631047  RH  023%=      5-min Rain = 0
KME1 090339Z 20005KT 16/M05 A2972 RMK A01 T01601046  RH  024%=      5-min Rain = 0
KME1 090340Z 20006KT 16/M05 A2972 RMK A01 T01571045  RH  025%=      5-min Rain = 0
KME1 090341Z 20006KT 15/M04 A2972 RMK A01 T01541044  RH  025%=      5-min Rain = 0
KME1 090342Z 20006KT 15/M04 A2972 RMK A01 T01521044  RH  026%=      5-min Rain = 0
KME1 090343Z 20006KT 15/M04 A2972 RMK A01 T01501044  RH  026%=      5-min Rain = 0
KME1 090344Z 21006KT 15/M04 A2972 RMK A01 T01481044  RH  026%=      5-min Rain = 0
KME1 090345Z 20006KT 15/M04 A2972 RMK A01 T01471044  RH  026%=      5-min Rain = 0
KME1 090346Z 20005KT 15/M04 A2972 RMK A01 T01471044  RH  027%=      5-min Rain = 0
KME1 090347Z 20005KT 15/M04 A2972 RMK A01 T01471044  RH  026%=      5-min Rain = 0
KME1 090348Z 20006KT 15/M04 A2972 RMK A01 T01471044  RH  027%=      5-min Rain = 0
KME1 090349Z 20005KT 15/M04 A2972 RMK A01 T01461044  RH  027%=      5-min Rain = 0
KME1 090350Z 20006KT 14/M04 A2972 RMK A01 T01441044  RH  027%=      5-min Rain = 0
KME1 090351Z 20006KT 15/M04 A2972 RMK A01 T01451044  RH  027%=      5-min Rain = 0
KME1 090352Z 20006KT 14/M05 A2972 RMK A01 T01441045  RH  027%=      5-min Rain = 0
KME1 090353Z 20006KT 14/M04 A2972 RMK A01 T01441044  RH  027%=      5-min Rain = 0
KME1 090354Z 20006KT 14/M04 A2972 RMK A01 T01441044  RH  027%=      5-min Rain = 0
KME1 090355Z 21005KT 14/M04 A2972 RMK A01 T01431044  RH  027%=      5-min Rain = 0
KME1 090356Z 21005KT 14/M04 A2972 RMK A01 T01431044  RH  027%=      5-min Rain = 0
KME1 090357Z 21005KT 14/M04 A2972 RMK A01 T01431044  RH  027%=      5-min Rain = 0
KME1 090358Z 21006KT 14/M04 A2972 RMK A01 T01431044  RH  027%=      5-min Rain = 0
KME1 090359Z 21006KT 14/M04 A2972 RMK A01 T01421044  RH  027%=      5-min Rain = 0
KME1 090400Z 21005KT 14/M04 A2972 RMK A01 T01411044  RH  027%=      5-min Rain = 0
KME1 090401Z 21005KT 14/M04 A2972 RMK A01 T01411044  RH  028%=      5-min Rain = 0
KME1 090402Z 21005KT 14/M04 A2972 RMK A01 T01411043  RH  028%=      5-min Rain = 0
KME1 090403Z 21005KT 14/M04 A2972 RMK A01 T01401043  RH  028%=      5-min Rain = 0
KME1 090404Z 20005KT 14/M04 A2972 RMK A01 T01401044  RH  028%=      5-min Rain = 0
KME1 090405Z 20006KT 14/M04 A2972 RMK A01 T01401044  RH  028%=      5-min Rain = 0
KME1 090406Z 20006KT 14/M04 A2972 RMK A01 T01391043  RH  028%=      5-min Rain = 0
KME1 090407Z 21006KT 14/M04 A2972 RMK A01 T01381043  RH  028%=      5-min Rain = 0
KME1 090408Z 21006KT 14/M04 A2972 RMK A01 T01381043  RH  028%=      5-min Rain = 0
KME1 090409Z 21006KT 14/M04 A2972 RMK A01 T01381043  RH  028%=      5-min Rain = 0
KME1 090410Z 20005KT 14/M04 A2972 RMK A01 T01391043  RH  028%=      5-min Rain = 0
KME1 090411Z 21005KT 14/M04 A2972 RMK A01 T01391043  RH  028%=      5-min Rain = 0
KME1 090412Z 21005KT 14/M04 A2972 RMK A01 T01381043  RH  028%=      5-min Rain = 0
KME1 090413Z 21005KT 14/M04 A2972 RMK A01 T01371043  RH  028%=      5-min Rain = 0
KME1 090414Z 21005KT 14/M04 A2972 RMK A01 T01351043  RH  029%=      5-min Rain = 0
KME1 090415Z 20005KT 13/M04 A2972 RMK A01 T01331043  RH  029%=      5-min Rain = 0
KME1 090416Z 20005KT 13/M04 A2971 RMK A01 T01321043  RH  029%=      5-min Rain = 0
KME1 090417Z 21006KT 13/M04 A2971 RMK A01 T01311043  RH  030%=      5-min Rain = 0
KME1 090418Z 21005KT 13/M04 A2971 RMK A01 T01301043  RH  030%=      5-min Rain = 0
KME1 090419Z 21005KT 13/M04 A2971 RMK A01 T01301043  RH  030%=      5-min Rain = 0
KME1 090420Z 21006KT 13/M04 A2971 RMK A01 T01301044  RH  030%=      5-min Rain = 0
KME1 090421Z 21005KT 13/M04 A2971 RMK A01 T01311044  RH  029%=      5-min Rain = 0
KME1 090422Z 21005KT 13/M04 A2971 RMK A01 T01311044  RH  029%=      5-min Rain = 0
KME1 090423Z 21005KT 13/M04 A2971 RMK A01 T01321044  RH  029%=      5-min Rain = 0
KME1 090424Z 20005KT 13/M04 A2971 RMK A01 T01341044  RH  029%=      5-min Rain = 0
KME1 090425Z 20005KT 14/M04 A2971 RMK A01 T01351044  RH  029%=      5-min Rain = 0
KME1 090426Z 19005KT 14/M04 A2971 RMK A01 T01351044  RH  029%=      5-min Rain = 0
KME1 090427Z 19006KT 14/M04 A2971 RMK A01 T01351044  RH  029%=      5-min Rain = 0
KME1 090428Z 19005KT 13/M04 A2971 RMK A01 T01331044  RH  029%=      5-min Rain = 0
KME1 090429Z 19005KT 13/M04 A2971 RMK A01 T01311043  RH  029%=      5-min Rain = 0
KME1 090430Z 19005KT 13/M04 A2971 RMK A01 T01301043  RH  030%=      5-min Rain = 0
KME1 090431Z 19006KT 13/M04 A2971 RMK A01 T01301042  RH  030%=      5-min Rain = 0
KME1 090432Z 19007KT 13/M04 A2971 RMK A01 T01301041  RH  030%=      5-min Rain = 0
KME1 090433Z 19008KT 13/M04 A2971 RMK A01 T01291041  RH  030%=      5-min Rain = 0
KME1 090434Z 19007KT 13/M04 A2971 RMK A01 T01281041  RH  031%=      5-min Rain = 0
KME1 090435Z 20006KT 13/M04 A2971 RMK A01 T01291041  RH  030%=      5-min Rain = 0
KME1 090436Z 20006KT 13/M04 A297 RMK A01 T01301042  RH  030%=      5-min Rain = 0
KME1 090437Z 20005KT 13/M04 A297 RMK A01 T01311043  RH  030%=      5-min Rain = 0
KME1 090438Z 21005KT 13/M04 A297 RMK A01 T01311043  RH  029%=      5-min Rain = 0
KME1 090439Z 20006KT 13/M04 A297 RMK A01 T01311044  RH  029%=      5-min Rain = 0
KME1 090440Z 20006KT 13/M04 A297 RMK A01 T01311044  RH  029%=      5-min Rain = 0
KME1 090441Z 19006KT 13/M04 A297 RMK A01 T01301044  RH  030%=      5-min Rain = 0
KME1 090442Z 20006KT 13/M04 A297 RMK A01 T01301043  RH  030%=      5-min Rain = 0
KME1 090443Z 20006KT 13/M04 A297 RMK A01 T01291043  RH  030%=      5-min Rain = 0
KME1 090444Z 20005KT 13/M04 A297 RMK A01 T01291043  RH  030%=      5-min Rain = 0
KME1 090445Z 20005KT 13/M04 A297 RMK A01 T01301044  RH  030%=      5-min Rain = 0
KME1 090446Z 21005KT 13/M04 A297 RMK A01 T01301044  RH  029%=      5-min Rain = 0
KME1 090447Z 20004KT 13/M04 A297 RMK A01 T01301044  RH  029%=      5-min Rain = 0
KME1 090448Z 20005KT 13/M04 A297 RMK A01 T01301043  RH  030%=      5-min Rain = 0
KME1 090449Z 20005KT 13/M04 A297 RMK A01 T01291042  RH  030%=      5-min Rain = 0
KME1 090450Z 20005KT 13/M04 A297 RMK A01 T01291042  RH  030%=      5-min Rain = 0
KME1 090451Z 20005KT 13/M04 A297 RMK A01 T01281042  RH  030%=      5-min Rain = 0
KME1 090452Z 21004KT 13/M04 A297 RMK A01 T01281043  RH  030%=      5-min Rain = 0
KME1 090453Z 21004KT 13/M04 A297 RMK A01 T01281043  RH  030%=      5-min Rain = 0
KME1 090454Z 21004KT 13/M04 A297 RMK A01 T01271044  RH  030%=      5-min Rain = 0
KME1 090455Z 21004KT 13/M04 A297 RMK A01 T01271044  RH  030%=      5-min Rain = 0
KME1 090456Z 21005KT 13/M04 A297 RMK A01 T01271043  RH  030%=      5-min Rain = 0
KME1 090457Z 21005KT 13/M04 A297 RMK A01 T01271044  RH  030%=      5-min Rain = 0
KME1 090458Z 21005KT 13/M04 A297 RMK A01 T01271044  RH  030%=      5-min Rain = 0
KME1 090459Z 21005KT 13/M04 A297 RMK A01 T01271044  RH  030%=      5-min Rain = 0

Page generated in 0.0634 seconds.